<?xml version="1.0" encoding="UTF-8" standalone="no" ?>
<gpx xmlns="http://www.topografix.com/GPX/1/1" xmlns:xsi="http://www.w3.org/2001/XMLSchema-instance" xsi:schemaLocation="http://www.topografix.com/GPX/1/1 http://www.topografix.com/GPX/1/1/gpx.xsd" version="1.1" creator="VisuGPX - https://www.visugpx.com">
  <metadata>
    <name>LA FORET ROYALE SAINT PAUL EN FORET</name>
    <desc><![CDATA[Départ de la D55 en empruntant la piste de la forêt royale, passage du gué de l'Endre et passage dans le vallon de Fontcounille puis retour vers le vallon de Crestecan. Petit détour par la maison forestière (avec une très belle vue sur le lac de Meaux). Emprunt de la piste de forêt royale pour revenir à notre point de départ. ]]></desc>
  </metadata>
  <trk>
    <name><![CDATA[Tracé actuel: 04 AVR 2017 13:41]]></name>
    <trkseg>
      <trkpt lat="43.57026" lon="6.6616">
        <ele>202.49</ele>
        <time>2017-04-04T11:41:14Z</time>
      </trkpt>
      <trkpt lat="43.57026" lon="6.6616">
        <ele>206.82</ele>
        <time>2017-04-04T11:41:19Z</time>
      </trkpt>
      <trkpt lat="43.57026" lon="6.6616">
        <ele>202.98</ele>
        <time>2017-04-04T11:41:20Z</time>
      </trkpt>
      <trkpt lat="43.57026" lon="6.6616">
        <ele>206.34</ele>
        <time>2017-04-04T11:41:28Z</time>
      </trkpt>
      <trkpt lat="43.57027" lon="6.66163">
        <ele>204.9</ele>
        <time>2017-04-04T11:41:36Z</time>
      </trkpt>
      <trkpt lat="43.57027" lon="6.66163">
        <ele>205.86</ele>
        <time>2017-04-04T11:41:54Z</time>
      </trkpt>
      <trkpt lat="43.57027" lon="6.66165">
        <ele>205.86</ele>
        <time>2017-04-04T11:42:13Z</time>
      </trkpt>
      <trkpt lat="43.57026" lon="6.66166">
        <ele>205.86</ele>
        <time>2017-04-04T11:42:28Z</time>
      </trkpt>
      <trkpt lat="43.57026" lon="6.66166">
        <ele>205.86</ele>
        <time>2017-04-04T11:42:48Z</time>
      </trkpt>
      <trkpt lat="43.57026" lon="6.66167">
        <ele>202.49</ele>
        <time>2017-04-04T11:43:01Z</time>
      </trkpt>
      <trkpt lat="43.57026" lon="6.66167">
        <ele>208.26</ele>
        <time>2017-04-04T11:43:02Z</time>
      </trkpt>
      <trkpt lat="43.57026" lon="6.66167">
        <ele>202.98</ele>
        <time>2017-04-04T11:43:09Z</time>
      </trkpt>
      <trkpt lat="43.57026" lon="6.66167">
        <ele>208.26</ele>
        <time>2017-04-04T11:43:10Z</time>
      </trkpt>
      <trkpt lat="43.57026" lon="6.66167">
        <ele>205.38</ele>
        <time>2017-04-04T11:43:14Z</time>
      </trkpt>
      <trkpt lat="43.57026" lon="6.66167">
        <ele>201.53</ele>
        <time>2017-04-04T11:43:28Z</time>
      </trkpt>
      <trkpt lat="43.57026" lon="6.66167">
        <ele>207.3</ele>
        <time>2017-04-04T11:43:29Z</time>
      </trkpt>
      <trkpt lat="43.57026" lon="6.66167">
        <ele>201.05</ele>
        <time>2017-04-04T11:43:32Z</time>
      </trkpt>
      <trkpt lat="43.57026" lon="6.66167">
        <ele>208.74</ele>
        <time>2017-04-04T11:43:33Z</time>
      </trkpt>
      <trkpt lat="43.57026" lon="6.66167">
        <ele>205.38</ele>
        <time>2017-04-04T11:43:35Z</time>
      </trkpt>
      <trkpt lat="43.57026" lon="6.66167">
        <ele>202.01</ele>
        <time>2017-04-04T11:43:37Z</time>
      </trkpt>
      <trkpt lat="43.57026" lon="6.66167">
        <ele>208.74</ele>
        <time>2017-04-04T11:43:38Z</time>
      </trkpt>
      <trkpt lat="43.57025" lon="6.66167">
        <ele>205.38</ele>
        <time>2017-04-04T11:43:44Z</time>
      </trkpt>
      <trkpt lat="43.57026" lon="6.66168">
        <ele>208.74</ele>
        <time>2017-04-04T11:43:55Z</time>
      </trkpt>
      <trkpt lat="43.57026" lon="6.66168">
        <ele>205.86</ele>
        <time>2017-04-04T11:43:58Z</time>
      </trkpt>
      <trkpt lat="43.57027" lon="6.66167">
        <ele>205.86</ele>
        <time>2017-04-04T11:44:17Z</time>
      </trkpt>
      <trkpt lat="43.57024" lon="6.66164">
        <ele>205.86</ele>
        <time>2017-04-04T11:44:26Z</time>
      </trkpt>
      <trkpt lat="43.57022" lon="6.66158">
        <ele>204.9</ele>
        <time>2017-04-04T11:44:31Z</time>
      </trkpt>
      <trkpt lat="43.57021" lon="6.66157">
        <ele>208.74</ele>
        <time>2017-04-04T11:44:32Z</time>
      </trkpt>
      <trkpt lat="43.5702" lon="6.66155">
        <ele>207.3</ele>
        <time>2017-04-04T11:44:33Z</time>
      </trkpt>
      <trkpt lat="43.57013" lon="6.6614">
        <ele>206.82</ele>
        <time>2017-04-04T11:44:45Z</time>
      </trkpt>
      <trkpt lat="43.57003" lon="6.6613">
        <ele>207.78</ele>
        <time>2017-04-04T11:44:57Z</time>
      </trkpt>
      <trkpt lat="43.57002" lon="6.66129">
        <ele>207.78</ele>
        <time>2017-04-04T11:44:58Z</time>
      </trkpt>
      <trkpt lat="43.56992" lon="6.66119">
        <ele>208.74</ele>
        <time>2017-04-04T11:45:08Z</time>
      </trkpt>
      <trkpt lat="43.56982" lon="6.66108">
        <ele>208.74</ele>
        <time>2017-04-04T11:45:20Z</time>
      </trkpt>
      <trkpt lat="43.56972" lon="6.66099">
        <ele>209.7</ele>
        <time>2017-04-04T11:45:32Z</time>
      </trkpt>
      <trkpt lat="43.56962" lon="6.66092">
        <ele>210.19</ele>
        <time>2017-04-04T11:45:42Z</time>
      </trkpt>
      <trkpt lat="43.56958" lon="6.6609">
        <ele>210.67</ele>
        <time>2017-04-04T11:45:46Z</time>
      </trkpt>
      <trkpt lat="43.56949" lon="6.66085">
        <ele>211.15</ele>
        <time>2017-04-04T11:45:54Z</time>
      </trkpt>
      <trkpt lat="43.56936" lon="6.66081">
        <ele>211.63</ele>
        <time>2017-04-04T11:46:05Z</time>
      </trkpt>
      <trkpt lat="43.56924" lon="6.66081">
        <ele>212.11</ele>
        <time>2017-04-04T11:46:15Z</time>
      </trkpt>
      <trkpt lat="43.56911" lon="6.66082">
        <ele>212.59</ele>
        <time>2017-04-04T11:46:26Z</time>
      </trkpt>
      <trkpt lat="43.56901" lon="6.66079">
        <ele>212.59</ele>
        <time>2017-04-04T11:46:35Z</time>
      </trkpt>
      <trkpt lat="43.56895" lon="6.66077">
        <ele>213.07</ele>
        <time>2017-04-04T11:46:40Z</time>
      </trkpt>
      <trkpt lat="43.56885" lon="6.66072">
        <ele>213.55</ele>
        <time>2017-04-04T11:46:50Z</time>
      </trkpt>
      <trkpt lat="43.56882" lon="6.66067">
        <ele>213.55</ele>
        <time>2017-04-04T11:46:56Z</time>
      </trkpt>
      <trkpt lat="43.56882" lon="6.66057">
        <ele>214.03</ele>
        <time>2017-04-04T11:47:04Z</time>
      </trkpt>
      <trkpt lat="43.56882" lon="6.66041">
        <ele>214.51</ele>
        <time>2017-04-04T11:47:15Z</time>
      </trkpt>
      <trkpt lat="43.56882" lon="6.66038">
        <ele>214.51</ele>
        <time>2017-04-04T11:47:17Z</time>
      </trkpt>
      <trkpt lat="43.56881" lon="6.66034">
        <ele>214.51</ele>
        <time>2017-04-04T11:47:20Z</time>
      </trkpt>
      <trkpt lat="43.56866" lon="6.6603">
        <ele>214.99</ele>
        <time>2017-04-04T11:47:31Z</time>
      </trkpt>
      <trkpt lat="43.56862" lon="6.66031">
        <ele>214.99</ele>
        <time>2017-04-04T11:47:34Z</time>
      </trkpt>
      <trkpt lat="43.56853" lon="6.66033">
        <ele>215.47</ele>
        <time>2017-04-04T11:47:43Z</time>
      </trkpt>
      <trkpt lat="43.56838" lon="6.66031">
        <ele>215.47</ele>
        <time>2017-04-04T11:47:54Z</time>
      </trkpt>
      <trkpt lat="43.56831" lon="6.66027">
        <ele>215.95</ele>
        <time>2017-04-04T11:48:01Z</time>
      </trkpt>
      <trkpt lat="43.56818" lon="6.66024">
        <ele>215.47</ele>
        <time>2017-04-04T11:48:12Z</time>
      </trkpt>
      <trkpt lat="43.56816" lon="6.66022">
        <ele>215.47</ele>
        <time>2017-04-04T11:48:14Z</time>
      </trkpt>
      <trkpt lat="43.56814" lon="6.6602">
        <ele>215.47</ele>
        <time>2017-04-04T11:48:16Z</time>
      </trkpt>
      <trkpt lat="43.56812" lon="6.66017">
        <ele>214.99</ele>
        <time>2017-04-04T11:48:20Z</time>
      </trkpt>
      <trkpt lat="43.56807" lon="6.65999">
        <ele>214.51</ele>
        <time>2017-04-04T11:48:32Z</time>
      </trkpt>
      <trkpt lat="43.56806" lon="6.65997">
        <ele>214.03</ele>
        <time>2017-04-04T11:48:34Z</time>
      </trkpt>
      <trkpt lat="43.5679" lon="6.65989">
        <ele>212.59</ele>
        <time>2017-04-04T11:48:47Z</time>
      </trkpt>
      <trkpt lat="43.56781" lon="6.65982">
        <ele>211.63</ele>
        <time>2017-04-04T11:48:56Z</time>
      </trkpt>
      <trkpt lat="43.56776" lon="6.6597">
        <ele>210.67</ele>
        <time>2017-04-04T11:49:07Z</time>
      </trkpt>
      <trkpt lat="43.56775" lon="6.65956">
        <ele>209.7</ele>
        <time>2017-04-04T11:49:17Z</time>
      </trkpt>
      <trkpt lat="43.56775" lon="6.65955">
        <ele>209.7</ele>
        <time>2017-04-04T11:49:18Z</time>
      </trkpt>
      <trkpt lat="43.56772" lon="6.65938">
        <ele>209.22</ele>
        <time>2017-04-04T11:49:28Z</time>
      </trkpt>
      <trkpt lat="43.5677" lon="6.65923">
        <ele>208.26</ele>
        <time>2017-04-04T11:49:39Z</time>
      </trkpt>
      <trkpt lat="43.56769" lon="6.65916">
        <ele>208.26</ele>
        <time>2017-04-04T11:49:43Z</time>
      </trkpt>
      <trkpt lat="43.5676" lon="6.65902">
        <ele>207.3</ele>
        <time>2017-04-04T11:49:51Z</time>
      </trkpt>
      <trkpt lat="43.56752" lon="6.65894">
        <ele>206.34</ele>
        <time>2017-04-04T11:49:59Z</time>
      </trkpt>
      <trkpt lat="43.56748" lon="6.6589">
        <ele>205.86</ele>
        <time>2017-04-04T11:50:03Z</time>
      </trkpt>
      <trkpt lat="43.56736" lon="6.65876">
        <ele>204.9</ele>
        <time>2017-04-04T11:50:15Z</time>
      </trkpt>
      <trkpt lat="43.56729" lon="6.65867">
        <ele>203.94</ele>
        <time>2017-04-04T11:50:23Z</time>
      </trkpt>
      <trkpt lat="43.56721" lon="6.65853">
        <ele>203.46</ele>
        <time>2017-04-04T11:50:33Z</time>
      </trkpt>
      <trkpt lat="43.56711" lon="6.65842">
        <ele>202.49</ele>
        <time>2017-04-04T11:50:43Z</time>
      </trkpt>
      <trkpt lat="43.56699" lon="6.6583">
        <ele>201.05</ele>
        <time>2017-04-04T11:50:55Z</time>
      </trkpt>
      <trkpt lat="43.5669" lon="6.65821">
        <ele>200.57</ele>
        <time>2017-04-04T11:51:05Z</time>
      </trkpt>
      <trkpt lat="43.56678" lon="6.65811">
        <ele>199.61</ele>
        <time>2017-04-04T11:51:16Z</time>
      </trkpt>
      <trkpt lat="43.56673" lon="6.65805">
        <ele>199.13</ele>
        <time>2017-04-04T11:51:22Z</time>
      </trkpt>
      <trkpt lat="43.56668" lon="6.658">
        <ele>199.13</ele>
        <time>2017-04-04T11:51:27Z</time>
      </trkpt>
      <trkpt lat="43.56666" lon="6.65799">
        <ele>198.65</ele>
        <time>2017-04-04T11:51:30Z</time>
      </trkpt>
      <trkpt lat="43.56662" lon="6.65795">
        <ele>198.65</ele>
        <time>2017-04-04T11:51:33Z</time>
      </trkpt>
      <trkpt lat="43.56653" lon="6.65785">
        <ele>198.17</ele>
        <time>2017-04-04T11:51:42Z</time>
      </trkpt>
      <trkpt lat="43.5665" lon="6.65783">
        <ele>198.17</ele>
        <time>2017-04-04T11:51:45Z</time>
      </trkpt>
      <trkpt lat="43.56644" lon="6.65778">
        <ele>197.69</ele>
        <time>2017-04-04T11:51:51Z</time>
      </trkpt>
      <trkpt lat="43.56635" lon="6.65768">
        <ele>197.21</ele>
        <time>2017-04-04T11:52:02Z</time>
      </trkpt>
      <trkpt lat="43.56629" lon="6.65762">
        <ele>197.21</ele>
        <time>2017-04-04T11:52:10Z</time>
      </trkpt>
      <trkpt lat="43.56629" lon="6.65761">
        <ele>196.73</ele>
        <time>2017-04-04T11:52:11Z</time>
      </trkpt>
      <trkpt lat="43.56617" lon="6.65753">
        <ele>196.25</ele>
        <time>2017-04-04T11:52:20Z</time>
      </trkpt>
      <trkpt lat="43.56614" lon="6.6575">
        <ele>196.25</ele>
        <time>2017-04-04T11:52:23Z</time>
      </trkpt>
      <trkpt lat="43.56613" lon="6.65747">
        <ele>196.25</ele>
        <time>2017-04-04T11:52:25Z</time>
      </trkpt>
      <trkpt lat="43.56609" lon="6.65741">
        <ele>195.77</ele>
        <time>2017-04-04T11:52:30Z</time>
      </trkpt>
      <trkpt lat="43.56598" lon="6.65732">
        <ele>195.77</ele>
        <time>2017-04-04T11:52:41Z</time>
      </trkpt>
      <trkpt lat="43.56586" lon="6.65723">
        <ele>195.28</ele>
        <time>2017-04-04T11:52:51Z</time>
      </trkpt>
      <trkpt lat="43.56575" lon="6.65717">
        <ele>194.8</ele>
        <time>2017-04-04T11:53:00Z</time>
      </trkpt>
      <trkpt lat="43.56568" lon="6.65713">
        <ele>194.32</ele>
        <time>2017-04-04T11:53:07Z</time>
      </trkpt>
      <trkpt lat="43.56564" lon="6.65711">
        <ele>194.32</ele>
        <time>2017-04-04T11:53:10Z</time>
      </trkpt>
      <trkpt lat="43.56557" lon="6.65709">
        <ele>193.36</ele>
        <time>2017-04-04T11:53:22Z</time>
      </trkpt>
      <trkpt lat="43.56557" lon="6.65708">
        <ele>193.36</ele>
        <time>2017-04-04T11:53:38Z</time>
      </trkpt>
      <trkpt lat="43.56558" lon="6.65708">
        <ele>193.84</ele>
        <time>2017-04-04T11:54:00Z</time>
      </trkpt>
      <trkpt lat="43.56556" lon="6.65708">
        <ele>193.36</ele>
        <time>2017-04-04T11:54:13Z</time>
      </trkpt>
      <trkpt lat="43.56551" lon="6.65709">
        <ele>193.36</ele>
        <time>2017-04-04T11:54:19Z</time>
      </trkpt>
      <trkpt lat="43.5654" lon="6.65704">
        <ele>193.84</ele>
        <time>2017-04-04T11:54:30Z</time>
      </trkpt>
      <trkpt lat="43.56537" lon="6.657">
        <ele>193.84</ele>
        <time>2017-04-04T11:54:35Z</time>
      </trkpt>
      <trkpt lat="43.56525" lon="6.65691">
        <ele>193.84</ele>
        <time>2017-04-04T11:54:46Z</time>
      </trkpt>
      <trkpt lat="43.5652" lon="6.65689">
        <ele>193.84</ele>
        <time>2017-04-04T11:54:49Z</time>
      </trkpt>
      <trkpt lat="43.56509" lon="6.6568">
        <ele>193.84</ele>
        <time>2017-04-04T11:55:02Z</time>
      </trkpt>
      <trkpt lat="43.56501" lon="6.65673">
        <ele>193.84</ele>
        <time>2017-04-04T11:55:10Z</time>
      </trkpt>
      <trkpt lat="43.56495" lon="6.6567">
        <ele>193.84</ele>
        <time>2017-04-04T11:55:15Z</time>
      </trkpt>
      <trkpt lat="43.56483" lon="6.65657">
        <ele>193.36</ele>
        <time>2017-04-04T11:55:27Z</time>
      </trkpt>
      <trkpt lat="43.56483" lon="6.65657">
        <ele>193.36</ele>
        <time>2017-04-04T11:55:28Z</time>
      </trkpt>
      <trkpt lat="43.56472" lon="6.65649">
        <ele>192.88</ele>
        <time>2017-04-04T11:55:39Z</time>
      </trkpt>
      <trkpt lat="43.56471" lon="6.65648">
        <ele>192.88</ele>
        <time>2017-04-04T11:55:40Z</time>
      </trkpt>
      <trkpt lat="43.56465" lon="6.65643">
        <ele>192.88</ele>
        <time>2017-04-04T11:55:46Z</time>
      </trkpt>
      <trkpt lat="43.56452" lon="6.6563">
        <ele>191.92</ele>
        <time>2017-04-04T11:55:58Z</time>
      </trkpt>
      <trkpt lat="43.56441" lon="6.65621">
        <ele>191.44</ele>
        <time>2017-04-04T11:56:08Z</time>
      </trkpt>
      <trkpt lat="43.56429" lon="6.65613">
        <ele>190.48</ele>
        <time>2017-04-04T11:56:19Z</time>
      </trkpt>
      <trkpt lat="43.56418" lon="6.65607">
        <ele>190</ele>
        <time>2017-04-04T11:56:30Z</time>
      </trkpt>
      <trkpt lat="43.56415" lon="6.65606">
        <ele>190</ele>
        <time>2017-04-04T11:56:42Z</time>
      </trkpt>
      <trkpt lat="43.56411" lon="6.65605">
        <ele>190.48</ele>
        <time>2017-04-04T11:56:51Z</time>
      </trkpt>
      <trkpt lat="43.56407" lon="6.65605">
        <ele>190.48</ele>
        <time>2017-04-04T11:57:00Z</time>
      </trkpt>
      <trkpt lat="43.56405" lon="6.65604">
        <ele>190.48</ele>
        <time>2017-04-04T11:57:02Z</time>
      </trkpt>
      <trkpt lat="43.56392" lon="6.656">
        <ele>191.44</ele>
        <time>2017-04-04T11:57:13Z</time>
      </trkpt>
      <trkpt lat="43.56385" lon="6.65596">
        <ele>191.92</ele>
        <time>2017-04-04T11:57:20Z</time>
      </trkpt>
      <trkpt lat="43.56378" lon="6.65595">
        <ele>192.4</ele>
        <time>2017-04-04T11:57:26Z</time>
      </trkpt>
      <trkpt lat="43.56372" lon="6.65593">
        <ele>192.4</ele>
        <time>2017-04-04T11:57:32Z</time>
      </trkpt>
      <trkpt lat="43.5636" lon="6.65588">
        <ele>193.36</ele>
        <time>2017-04-04T11:57:43Z</time>
      </trkpt>
      <trkpt lat="43.56354" lon="6.65588">
        <ele>193.84</ele>
        <time>2017-04-04T11:57:50Z</time>
      </trkpt>
      <trkpt lat="43.56348" lon="6.65586">
        <ele>193.84</ele>
        <time>2017-04-04T11:57:54Z</time>
      </trkpt>
      <trkpt lat="43.56335" lon="6.65586">
        <ele>193.84</ele>
        <time>2017-04-04T11:58:05Z</time>
      </trkpt>
      <trkpt lat="43.56321" lon="6.6559">
        <ele>193.36</ele>
        <time>2017-04-04T11:58:16Z</time>
      </trkpt>
      <trkpt lat="43.56309" lon="6.65589">
        <ele>192.88</ele>
        <time>2017-04-04T11:58:26Z</time>
      </trkpt>
      <trkpt lat="43.56307" lon="6.65589">
        <ele>192.88</ele>
        <time>2017-04-04T11:58:27Z</time>
      </trkpt>
      <trkpt lat="43.56294" lon="6.65583">
        <ele>193.36</ele>
        <time>2017-04-04T11:58:37Z</time>
      </trkpt>
      <trkpt lat="43.56278" lon="6.65579">
        <ele>192.4</ele>
        <time>2017-04-04T11:58:50Z</time>
      </trkpt>
      <trkpt lat="43.56265" lon="6.65576">
        <ele>192.4</ele>
        <time>2017-04-04T11:59:00Z</time>
      </trkpt>
      <trkpt lat="43.56258" lon="6.65576">
        <ele>192.4</ele>
        <time>2017-04-04T11:59:06Z</time>
      </trkpt>
      <trkpt lat="43.56247" lon="6.65577">
        <ele>192.4</ele>
        <time>2017-04-04T11:59:16Z</time>
      </trkpt>
      <trkpt lat="43.56237" lon="6.6558">
        <ele>192.88</ele>
        <time>2017-04-04T11:59:25Z</time>
      </trkpt>
      <trkpt lat="43.56226" lon="6.6558">
        <ele>193.36</ele>
        <time>2017-04-04T11:59:35Z</time>
      </trkpt>
      <trkpt lat="43.56224" lon="6.6558">
        <ele>193.36</ele>
        <time>2017-04-04T11:59:37Z</time>
      </trkpt>
      <trkpt lat="43.56222" lon="6.65581">
        <ele>193.84</ele>
        <time>2017-04-04T11:59:40Z</time>
      </trkpt>
      <trkpt lat="43.56218" lon="6.65581">
        <ele>193.84</ele>
        <time>2017-04-04T11:59:44Z</time>
      </trkpt>
      <trkpt lat="43.56205" lon="6.65581">
        <ele>195.28</ele>
        <time>2017-04-04T11:59:56Z</time>
      </trkpt>
      <trkpt lat="43.56197" lon="6.6558">
        <ele>195.77</ele>
        <time>2017-04-04T12:00:03Z</time>
      </trkpt>
      <trkpt lat="43.56194" lon="6.65579">
        <ele>196.25</ele>
        <time>2017-04-04T12:00:06Z</time>
      </trkpt>
      <trkpt lat="43.5619" lon="6.65579">
        <ele>196.73</ele>
        <time>2017-04-04T12:00:10Z</time>
      </trkpt>
      <trkpt lat="43.56174" lon="6.65584">
        <ele>198.17</ele>
        <time>2017-04-04T12:00:23Z</time>
      </trkpt>
      <trkpt lat="43.56164" lon="6.65589">
        <ele>199.61</ele>
        <time>2017-04-04T12:00:35Z</time>
      </trkpt>
      <trkpt lat="43.56154" lon="6.65592">
        <ele>201.05</ele>
        <time>2017-04-04T12:00:44Z</time>
      </trkpt>
      <trkpt lat="43.56149" lon="6.65594">
        <ele>201.53</ele>
        <time>2017-04-04T12:00:49Z</time>
      </trkpt>
      <trkpt lat="43.56143" lon="6.65594">
        <ele>202.01</ele>
        <time>2017-04-04T12:00:55Z</time>
      </trkpt>
      <trkpt lat="43.56137" lon="6.65596">
        <ele>202.49</ele>
        <time>2017-04-04T12:01:01Z</time>
      </trkpt>
      <trkpt lat="43.56133" lon="6.65599">
        <ele>202.49</ele>
        <time>2017-04-04T12:01:04Z</time>
      </trkpt>
      <trkpt lat="43.5613" lon="6.65603">
        <ele>202.49</ele>
        <time>2017-04-04T12:01:08Z</time>
      </trkpt>
      <trkpt lat="43.56116" lon="6.65611">
        <ele>201.53</ele>
        <time>2017-04-04T12:01:20Z</time>
      </trkpt>
      <trkpt lat="43.56109" lon="6.65615">
        <ele>200.57</ele>
        <time>2017-04-04T12:01:28Z</time>
      </trkpt>
      <trkpt lat="43.561" lon="6.65621">
        <ele>200.09</ele>
        <time>2017-04-04T12:01:36Z</time>
      </trkpt>
      <trkpt lat="43.56094" lon="6.65625">
        <ele>199.61</ele>
        <time>2017-04-04T12:01:42Z</time>
      </trkpt>
      <trkpt lat="43.56087" lon="6.65624">
        <ele>199.13</ele>
        <time>2017-04-04T12:01:51Z</time>
      </trkpt>
      <trkpt lat="43.56085" lon="6.65625">
        <ele>199.13</ele>
        <time>2017-04-04T12:01:53Z</time>
      </trkpt>
      <trkpt lat="43.56074" lon="6.65631">
        <ele>199.13</ele>
        <time>2017-04-04T12:02:04Z</time>
      </trkpt>
      <trkpt lat="43.56071" lon="6.65631">
        <ele>199.13</ele>
        <time>2017-04-04T12:02:07Z</time>
      </trkpt>
      <trkpt lat="43.56067" lon="6.65631">
        <ele>199.13</ele>
        <time>2017-04-04T12:02:10Z</time>
      </trkpt>
      <trkpt lat="43.56061" lon="6.65633">
        <ele>199.13</ele>
        <time>2017-04-04T12:02:17Z</time>
      </trkpt>
      <trkpt lat="43.56052" lon="6.65637">
        <ele>199.61</ele>
        <time>2017-04-04T12:02:28Z</time>
      </trkpt>
      <trkpt lat="43.56044" lon="6.6564">
        <ele>199.61</ele>
        <time>2017-04-04T12:02:39Z</time>
      </trkpt>
      <trkpt lat="43.56044" lon="6.65643">
        <ele>199.61</ele>
        <time>2017-04-04T12:02:51Z</time>
      </trkpt>
      <trkpt lat="43.56042" lon="6.65643">
        <ele>199.61</ele>
        <time>2017-04-04T12:02:56Z</time>
      </trkpt>
      <trkpt lat="43.5604" lon="6.65644">
        <ele>200.09</ele>
        <time>2017-04-04T12:02:58Z</time>
      </trkpt>
      <trkpt lat="43.56029" lon="6.65645">
        <ele>200.09</ele>
        <time>2017-04-04T12:03:08Z</time>
      </trkpt>
      <trkpt lat="43.56026" lon="6.65644">
        <ele>200.57</ele>
        <time>2017-04-04T12:03:10Z</time>
      </trkpt>
      <trkpt lat="43.56015" lon="6.65644">
        <ele>201.05</ele>
        <time>2017-04-04T12:03:20Z</time>
      </trkpt>
      <trkpt lat="43.5601" lon="6.65644">
        <ele>201.53</ele>
        <time>2017-04-04T12:03:24Z</time>
      </trkpt>
      <trkpt lat="43.55998" lon="6.6564">
        <ele>202.01</ele>
        <time>2017-04-04T12:03:36Z</time>
      </trkpt>
      <trkpt lat="43.55995" lon="6.65639">
        <ele>202.01</ele>
        <time>2017-04-04T12:03:39Z</time>
      </trkpt>
      <trkpt lat="43.55992" lon="6.65639">
        <ele>202.49</ele>
        <time>2017-04-04T12:03:42Z</time>
      </trkpt>
      <trkpt lat="43.55988" lon="6.65638">
        <ele>202.49</ele>
        <time>2017-04-04T12:03:46Z</time>
      </trkpt>
      <trkpt lat="43.55976" lon="6.65639">
        <ele>202.98</ele>
        <time>2017-04-04T12:03:57Z</time>
      </trkpt>
      <trkpt lat="43.55964" lon="6.6564">
        <ele>203.46</ele>
        <time>2017-04-04T12:04:08Z</time>
      </trkpt>
      <trkpt lat="43.55952" lon="6.65643">
        <ele>203.46</ele>
        <time>2017-04-04T12:04:19Z</time>
      </trkpt>
      <trkpt lat="43.5595" lon="6.65642">
        <ele>203.94</ele>
        <time>2017-04-04T12:04:21Z</time>
      </trkpt>
      <trkpt lat="43.55943" lon="6.65645">
        <ele>203.94</ele>
        <time>2017-04-04T12:04:27Z</time>
      </trkpt>
      <trkpt lat="43.55931" lon="6.65647">
        <ele>204.9</ele>
        <time>2017-04-04T12:04:37Z</time>
      </trkpt>
      <trkpt lat="43.5592" lon="6.65648">
        <ele>204.42</ele>
        <time>2017-04-04T12:04:47Z</time>
      </trkpt>
      <trkpt lat="43.55909" lon="6.65647">
        <ele>204.42</ele>
        <time>2017-04-04T12:04:56Z</time>
      </trkpt>
      <trkpt lat="43.559" lon="6.65651">
        <ele>204.9</ele>
        <time>2017-04-04T12:05:05Z</time>
      </trkpt>
      <trkpt lat="43.55896" lon="6.65652">
        <ele>204.9</ele>
        <time>2017-04-04T12:05:08Z</time>
      </trkpt>
      <trkpt lat="43.55884" lon="6.65657">
        <ele>205.38</ele>
        <time>2017-04-04T12:05:19Z</time>
      </trkpt>
      <trkpt lat="43.55874" lon="6.65664">
        <ele>205.86</ele>
        <time>2017-04-04T12:05:29Z</time>
      </trkpt>
      <trkpt lat="43.55864" lon="6.6567">
        <ele>205.38</ele>
        <time>2017-04-04T12:05:39Z</time>
      </trkpt>
      <trkpt lat="43.55861" lon="6.65672">
        <ele>205.38</ele>
        <time>2017-04-04T12:05:41Z</time>
      </trkpt>
      <trkpt lat="43.55859" lon="6.65673">
        <ele>205.38</ele>
        <time>2017-04-04T12:05:43Z</time>
      </trkpt>
      <trkpt lat="43.55857" lon="6.65673">
        <ele>205.38</ele>
        <time>2017-04-04T12:05:46Z</time>
      </trkpt>
      <trkpt lat="43.55847" lon="6.65674">
        <ele>205.86</ele>
        <time>2017-04-04T12:05:55Z</time>
      </trkpt>
      <trkpt lat="43.55845" lon="6.65674">
        <ele>205.86</ele>
        <time>2017-04-04T12:05:58Z</time>
      </trkpt>
      <trkpt lat="43.55833" lon="6.65676">
        <ele>206.34</ele>
        <time>2017-04-04T12:06:09Z</time>
      </trkpt>
      <trkpt lat="43.55822" lon="6.65679">
        <ele>206.34</ele>
        <time>2017-04-04T12:06:20Z</time>
      </trkpt>
      <trkpt lat="43.55814" lon="6.65681">
        <ele>206.34</ele>
        <time>2017-04-04T12:06:28Z</time>
      </trkpt>
      <trkpt lat="43.5581" lon="6.65682">
        <ele>206.82</ele>
        <time>2017-04-04T12:06:32Z</time>
      </trkpt>
      <trkpt lat="43.55799" lon="6.65685">
        <ele>206.82</ele>
        <time>2017-04-04T12:06:42Z</time>
      </trkpt>
      <trkpt lat="43.55794" lon="6.65684">
        <ele>207.3</ele>
        <time>2017-04-04T12:06:47Z</time>
      </trkpt>
      <trkpt lat="43.5579" lon="6.65685">
        <ele>207.78</ele>
        <time>2017-04-04T12:06:53Z</time>
      </trkpt>
      <trkpt lat="43.55787" lon="6.65685">
        <ele>207.3</ele>
        <time>2017-04-04T12:06:56Z</time>
      </trkpt>
      <trkpt lat="43.55779" lon="6.65686">
        <ele>208.26</ele>
        <time>2017-04-04T12:07:02Z</time>
      </trkpt>
      <trkpt lat="43.55774" lon="6.65685">
        <ele>208.74</ele>
        <time>2017-04-04T12:07:08Z</time>
      </trkpt>
      <trkpt lat="43.55772" lon="6.65686">
        <ele>208.74</ele>
        <time>2017-04-04T12:07:10Z</time>
      </trkpt>
      <trkpt lat="43.55767" lon="6.65686">
        <ele>209.22</ele>
        <time>2017-04-04T12:07:16Z</time>
      </trkpt>
      <trkpt lat="43.55765" lon="6.65685">
        <ele>209.22</ele>
        <time>2017-04-04T12:07:18Z</time>
      </trkpt>
      <trkpt lat="43.55759" lon="6.65684">
        <ele>209.7</ele>
        <time>2017-04-04T12:07:24Z</time>
      </trkpt>
      <trkpt lat="43.55747" lon="6.65683">
        <ele>210.67</ele>
        <time>2017-04-04T12:07:35Z</time>
      </trkpt>
      <trkpt lat="43.55738" lon="6.65682">
        <ele>211.15</ele>
        <time>2017-04-04T12:07:44Z</time>
      </trkpt>
      <trkpt lat="43.55731" lon="6.65681">
        <ele>211.63</ele>
        <time>2017-04-04T12:07:51Z</time>
      </trkpt>
      <trkpt lat="43.55724" lon="6.65685">
        <ele>212.11</ele>
        <time>2017-04-04T12:07:56Z</time>
      </trkpt>
      <trkpt lat="43.55715" lon="6.65687">
        <ele>212.11</ele>
        <time>2017-04-04T12:08:02Z</time>
      </trkpt>
      <trkpt lat="43.55706" lon="6.65693">
        <ele>212.11</ele>
        <time>2017-04-04T12:08:09Z</time>
      </trkpt>
      <trkpt lat="43.55697" lon="6.65701">
        <ele>211.63</ele>
        <time>2017-04-04T12:08:17Z</time>
      </trkpt>
      <trkpt lat="43.55692" lon="6.65709">
        <ele>211.63</ele>
        <time>2017-04-04T12:08:23Z</time>
      </trkpt>
      <trkpt lat="43.55684" lon="6.65719">
        <ele>211.15</ele>
        <time>2017-04-04T12:08:32Z</time>
      </trkpt>
      <trkpt lat="43.55686" lon="6.65721">
        <ele>210.67</ele>
        <time>2017-04-04T12:08:42Z</time>
      </trkpt>
      <trkpt lat="43.55687" lon="6.65721">
        <ele>210.67</ele>
        <time>2017-04-04T12:09:03Z</time>
      </trkpt>
      <trkpt lat="43.55688" lon="6.65722">
        <ele>210.67</ele>
        <time>2017-04-04T12:09:17Z</time>
      </trkpt>
      <trkpt lat="43.55688" lon="6.65722">
        <ele>210.67</ele>
        <time>2017-04-04T12:09:19Z</time>
      </trkpt>
      <trkpt lat="43.55686" lon="6.65722">
        <ele>207.78</ele>
        <time>2017-04-04T12:09:24Z</time>
      </trkpt>
      <trkpt lat="43.55686" lon="6.65722">
        <ele>214.03</ele>
        <time>2017-04-04T12:09:25Z</time>
      </trkpt>
      <trkpt lat="43.55686" lon="6.65722">
        <ele>210.67</ele>
        <time>2017-04-04T12:09:26Z</time>
      </trkpt>
      <trkpt lat="43.55685" lon="6.65725">
        <ele>210.67</ele>
        <time>2017-04-04T12:09:41Z</time>
      </trkpt>
      <trkpt lat="43.55685" lon="6.65723">
        <ele>210.67</ele>
        <time>2017-04-04T12:09:57Z</time>
      </trkpt>
      <trkpt lat="43.55685" lon="6.65722">
        <ele>210.67</ele>
        <time>2017-04-04T12:10:17Z</time>
      </trkpt>
      <trkpt lat="43.55686" lon="6.65722">
        <ele>210.67</ele>
        <time>2017-04-04T12:10:40Z</time>
      </trkpt>
      <trkpt lat="43.55687" lon="6.65722">
        <ele>210.67</ele>
        <time>2017-04-04T12:10:58Z</time>
      </trkpt>
      <trkpt lat="43.55687" lon="6.65722">
        <ele>210.67</ele>
        <time>2017-04-04T12:11:19Z</time>
      </trkpt>
      <trkpt lat="43.55685" lon="6.65724">
        <ele>210.67</ele>
        <time>2017-04-04T12:11:34Z</time>
      </trkpt>
      <trkpt lat="43.55683" lon="6.65725">
        <ele>210.67</ele>
        <time>2017-04-04T12:11:36Z</time>
      </trkpt>
      <trkpt lat="43.55679" lon="6.65728">
        <ele>210.67</ele>
        <time>2017-04-04T12:11:39Z</time>
      </trkpt>
      <trkpt lat="43.5567" lon="6.65731">
        <ele>210.19</ele>
        <time>2017-04-04T12:11:46Z</time>
      </trkpt>
      <trkpt lat="43.55666" lon="6.65733">
        <ele>209.7</ele>
        <time>2017-04-04T12:11:50Z</time>
      </trkpt>
      <trkpt lat="43.55663" lon="6.65734">
        <ele>209.7</ele>
        <time>2017-04-04T12:11:53Z</time>
      </trkpt>
      <trkpt lat="43.55651" lon="6.65744">
        <ele>209.7</ele>
        <time>2017-04-04T12:12:03Z</time>
      </trkpt>
      <trkpt lat="43.55641" lon="6.65749">
        <ele>210.67</ele>
        <time>2017-04-04T12:12:12Z</time>
      </trkpt>
      <trkpt lat="43.55638" lon="6.65749">
        <ele>210.67</ele>
        <time>2017-04-04T12:12:15Z</time>
      </trkpt>
      <trkpt lat="43.55633" lon="6.65749">
        <ele>210.67</ele>
        <time>2017-04-04T12:12:19Z</time>
      </trkpt>
      <trkpt lat="43.55624" lon="6.6575">
        <ele>211.63</ele>
        <time>2017-04-04T12:12:28Z</time>
      </trkpt>
      <trkpt lat="43.55622" lon="6.65749">
        <ele>212.11</ele>
        <time>2017-04-04T12:12:30Z</time>
      </trkpt>
      <trkpt lat="43.5562" lon="6.65749">
        <ele>212.59</ele>
        <time>2017-04-04T12:12:33Z</time>
      </trkpt>
      <trkpt lat="43.55614" lon="6.65749">
        <ele>213.55</ele>
        <time>2017-04-04T12:12:38Z</time>
      </trkpt>
      <trkpt lat="43.55612" lon="6.65749">
        <ele>212.59</ele>
        <time>2017-04-04T12:12:40Z</time>
      </trkpt>
      <trkpt lat="43.55605" lon="6.65751">
        <ele>213.55</ele>
        <time>2017-04-04T12:12:48Z</time>
      </trkpt>
      <trkpt lat="43.55593" lon="6.65748">
        <ele>214.03</ele>
        <time>2017-04-04T12:12:57Z</time>
      </trkpt>
      <trkpt lat="43.55582" lon="6.65746">
        <ele>214.51</ele>
        <time>2017-04-04T12:13:05Z</time>
      </trkpt>
      <trkpt lat="43.5557" lon="6.65745">
        <ele>214.99</ele>
        <time>2017-04-04T12:13:15Z</time>
      </trkpt>
      <trkpt lat="43.55561" lon="6.65744">
        <ele>214.99</ele>
        <time>2017-04-04T12:13:24Z</time>
      </trkpt>
      <trkpt lat="43.55556" lon="6.65743">
        <ele>215.47</ele>
        <time>2017-04-04T12:13:32Z</time>
      </trkpt>
      <trkpt lat="43.55545" lon="6.65746">
        <ele>215.95</ele>
        <time>2017-04-04T12:13:41Z</time>
      </trkpt>
      <trkpt lat="43.55537" lon="6.65749">
        <ele>215.95</ele>
        <time>2017-04-04T12:13:48Z</time>
      </trkpt>
      <trkpt lat="43.55521" lon="6.65756">
        <ele>215.95</ele>
        <time>2017-04-04T12:13:59Z</time>
      </trkpt>
      <trkpt lat="43.55509" lon="6.65758">
        <ele>216.91</ele>
        <time>2017-04-04T12:14:10Z</time>
      </trkpt>
      <trkpt lat="43.555" lon="6.6576">
        <ele>216.91</ele>
        <time>2017-04-04T12:14:19Z</time>
      </trkpt>
      <trkpt lat="43.55494" lon="6.65758">
        <ele>217.4</ele>
        <time>2017-04-04T12:14:25Z</time>
      </trkpt>
      <trkpt lat="43.55491" lon="6.6576">
        <ele>217.4</ele>
        <time>2017-04-04T12:14:29Z</time>
      </trkpt>
      <trkpt lat="43.55477" lon="6.65764">
        <ele>217.88</ele>
        <time>2017-04-04T12:14:41Z</time>
      </trkpt>
      <trkpt lat="43.55466" lon="6.65763">
        <ele>218.36</ele>
        <time>2017-04-04T12:14:51Z</time>
      </trkpt>
      <trkpt lat="43.55461" lon="6.65765">
        <ele>218.36</ele>
        <time>2017-04-04T12:14:55Z</time>
      </trkpt>
      <trkpt lat="43.55447" lon="6.65767">
        <ele>219.32</ele>
        <time>2017-04-04T12:15:05Z</time>
      </trkpt>
      <trkpt lat="43.55442" lon="6.65768">
        <ele>219.32</ele>
        <time>2017-04-04T12:15:09Z</time>
      </trkpt>
      <trkpt lat="43.55432" lon="6.65767">
        <ele>220.76</ele>
        <time>2017-04-04T12:15:19Z</time>
      </trkpt>
      <trkpt lat="43.55422" lon="6.65767">
        <ele>221.24</ele>
        <time>2017-04-04T12:15:27Z</time>
      </trkpt>
      <trkpt lat="43.55411" lon="6.65766">
        <ele>221.72</ele>
        <time>2017-04-04T12:15:37Z</time>
      </trkpt>
      <trkpt lat="43.55409" lon="6.65765">
        <ele>222.2</ele>
        <time>2017-04-04T12:15:40Z</time>
      </trkpt>
      <trkpt lat="43.55406" lon="6.65764">
        <ele>221.72</ele>
        <time>2017-04-04T12:15:43Z</time>
      </trkpt>
      <trkpt lat="43.55398" lon="6.65761">
        <ele>221.72</ele>
        <time>2017-04-04T12:15:53Z</time>
      </trkpt>
      <trkpt lat="43.55397" lon="6.6576">
        <ele>221.72</ele>
        <time>2017-04-04T12:15:56Z</time>
      </trkpt>
      <trkpt lat="43.55392" lon="6.65758">
        <ele>221.72</ele>
        <time>2017-04-04T12:16:01Z</time>
      </trkpt>
      <trkpt lat="43.55387" lon="6.6576">
        <ele>221.72</ele>
        <time>2017-04-04T12:16:05Z</time>
      </trkpt>
      <trkpt lat="43.55378" lon="6.65759">
        <ele>221.72</ele>
        <time>2017-04-04T12:16:14Z</time>
      </trkpt>
      <trkpt lat="43.55374" lon="6.65757">
        <ele>221.72</ele>
        <time>2017-04-04T12:16:19Z</time>
      </trkpt>
      <trkpt lat="43.55364" lon="6.65755">
        <ele>221.72</ele>
        <time>2017-04-04T12:16:26Z</time>
      </trkpt>
      <trkpt lat="43.55358" lon="6.65757">
        <ele>221.72</ele>
        <time>2017-04-04T12:16:33Z</time>
      </trkpt>
      <trkpt lat="43.55344" lon="6.6576">
        <ele>221.72</ele>
        <time>2017-04-04T12:16:44Z</time>
      </trkpt>
      <trkpt lat="43.55334" lon="6.65762">
        <ele>222.2</ele>
        <time>2017-04-04T12:16:54Z</time>
      </trkpt>
      <trkpt lat="43.55329" lon="6.65763">
        <ele>222.68</ele>
        <time>2017-04-04T12:16:59Z</time>
      </trkpt>
      <trkpt lat="43.55326" lon="6.65763">
        <ele>222.68</ele>
        <time>2017-04-04T12:17:02Z</time>
      </trkpt>
      <trkpt lat="43.55316" lon="6.65765">
        <ele>223.64</ele>
        <time>2017-04-04T12:17:10Z</time>
      </trkpt>
      <trkpt lat="43.55309" lon="6.65769">
        <ele>223.64</ele>
        <time>2017-04-04T12:17:17Z</time>
      </trkpt>
      <trkpt lat="43.55304" lon="6.65771">
        <ele>224.12</ele>
        <time>2017-04-04T12:17:22Z</time>
      </trkpt>
      <trkpt lat="43.55293" lon="6.65773">
        <ele>225.09</ele>
        <time>2017-04-04T12:17:33Z</time>
      </trkpt>
      <trkpt lat="43.55291" lon="6.65773">
        <ele>225.57</ele>
        <time>2017-04-04T12:17:35Z</time>
      </trkpt>
      <trkpt lat="43.55287" lon="6.65776">
        <ele>225.57</ele>
        <time>2017-04-04T12:17:39Z</time>
      </trkpt>
      <trkpt lat="43.55284" lon="6.65779">
        <ele>226.05</ele>
        <time>2017-04-04T12:17:43Z</time>
      </trkpt>
      <trkpt lat="43.55281" lon="6.65778">
        <ele>226.05</ele>
        <time>2017-04-04T12:17:45Z</time>
      </trkpt>
      <trkpt lat="43.55275" lon="6.65776">
        <ele>226.53</ele>
        <time>2017-04-04T12:17:53Z</time>
      </trkpt>
      <trkpt lat="43.55271" lon="6.65775">
        <ele>227.01</ele>
        <time>2017-04-04T12:17:57Z</time>
      </trkpt>
      <trkpt lat="43.55269" lon="6.65774">
        <ele>227.01</ele>
        <time>2017-04-04T12:18:02Z</time>
      </trkpt>
      <trkpt lat="43.55261" lon="6.65771">
        <ele>227.49</ele>
        <time>2017-04-04T12:18:09Z</time>
      </trkpt>
      <trkpt lat="43.55255" lon="6.65767">
        <ele>227.97</ele>
        <time>2017-04-04T12:18:16Z</time>
      </trkpt>
      <trkpt lat="43.55253" lon="6.65766">
        <ele>227.97</ele>
        <time>2017-04-04T12:18:18Z</time>
      </trkpt>
      <trkpt lat="43.55244" lon="6.65765">
        <ele>228.45</ele>
        <time>2017-04-04T12:18:25Z</time>
      </trkpt>
      <trkpt lat="43.55242" lon="6.65768">
        <ele>225.09</ele>
        <time>2017-04-04T12:18:27Z</time>
      </trkpt>
      <trkpt lat="43.55241" lon="6.65769">
        <ele>229.89</ele>
        <time>2017-04-04T12:18:28Z</time>
      </trkpt>
      <trkpt lat="43.55228" lon="6.65777">
        <ele>228.93</ele>
        <time>2017-04-04T12:18:39Z</time>
      </trkpt>
      <trkpt lat="43.55226" lon="6.6578">
        <ele>228.93</ele>
        <time>2017-04-04T12:18:41Z</time>
      </trkpt>
      <trkpt lat="43.5522" lon="6.65781">
        <ele>229.41</ele>
        <time>2017-04-04T12:18:46Z</time>
      </trkpt>
      <trkpt lat="43.55212" lon="6.65779">
        <ele>229.89</ele>
        <time>2017-04-04T12:18:56Z</time>
      </trkpt>
      <trkpt lat="43.55204" lon="6.65776">
        <ele>230.37</ele>
        <time>2017-04-04T12:19:04Z</time>
      </trkpt>
      <trkpt lat="43.552" lon="6.65776">
        <ele>230.37</ele>
        <time>2017-04-04T12:19:08Z</time>
      </trkpt>
      <trkpt lat="43.55189" lon="6.65781">
        <ele>231.33</ele>
        <time>2017-04-04T12:19:19Z</time>
      </trkpt>
      <trkpt lat="43.55176" lon="6.65785">
        <ele>231.81</ele>
        <time>2017-04-04T12:19:30Z</time>
      </trkpt>
      <trkpt lat="43.55172" lon="6.65787">
        <ele>231.81</ele>
        <time>2017-04-04T12:19:34Z</time>
      </trkpt>
      <trkpt lat="43.55169" lon="6.65788">
        <ele>231.81</ele>
        <time>2017-04-04T12:19:37Z</time>
      </trkpt>
      <trkpt lat="43.55161" lon="6.65789">
        <ele>232.3</ele>
        <time>2017-04-04T12:19:45Z</time>
      </trkpt>
      <trkpt lat="43.55154" lon="6.65793">
        <ele>232.3</ele>
        <time>2017-04-04T12:19:52Z</time>
      </trkpt>
      <trkpt lat="43.55148" lon="6.65797">
        <ele>232.3</ele>
        <time>2017-04-04T12:19:58Z</time>
      </trkpt>
      <trkpt lat="43.55146" lon="6.65797">
        <ele>232.3</ele>
        <time>2017-04-04T12:20:00Z</time>
      </trkpt>
      <trkpt lat="43.55138" lon="6.65795">
        <ele>232.78</ele>
        <time>2017-04-04T12:20:09Z</time>
      </trkpt>
      <trkpt lat="43.55132" lon="6.65794">
        <ele>232.78</ele>
        <time>2017-04-04T12:20:15Z</time>
      </trkpt>
      <trkpt lat="43.55123" lon="6.65796">
        <ele>234.22</ele>
        <time>2017-04-04T12:20:25Z</time>
      </trkpt>
      <trkpt lat="43.55114" lon="6.65797">
        <ele>234.7</ele>
        <time>2017-04-04T12:20:33Z</time>
      </trkpt>
      <trkpt lat="43.55103" lon="6.65798">
        <ele>235.18</ele>
        <time>2017-04-04T12:20:42Z</time>
      </trkpt>
      <trkpt lat="43.55097" lon="6.65799">
        <ele>235.66</ele>
        <time>2017-04-04T12:20:48Z</time>
      </trkpt>
      <trkpt lat="43.55092" lon="6.65799">
        <ele>235.66</ele>
        <time>2017-04-04T12:20:53Z</time>
      </trkpt>
      <trkpt lat="43.55081" lon="6.65801">
        <ele>236.14</ele>
        <time>2017-04-04T12:21:05Z</time>
      </trkpt>
      <trkpt lat="43.55077" lon="6.65806">
        <ele>236.62</ele>
        <time>2017-04-04T12:21:15Z</time>
      </trkpt>
      <trkpt lat="43.55076" lon="6.65807">
        <ele>237.1</ele>
        <time>2017-04-04T12:21:33Z</time>
      </trkpt>
      <trkpt lat="43.55076" lon="6.65808">
        <ele>239.51</ele>
        <time>2017-04-04T12:21:49Z</time>
      </trkpt>
      <trkpt lat="43.55074" lon="6.65809">
        <ele>237.1</ele>
        <time>2017-04-04T12:21:59Z</time>
      </trkpt>
      <trkpt lat="43.55076" lon="6.65812">
        <ele>237.1</ele>
        <time>2017-04-04T12:22:20Z</time>
      </trkpt>
      <trkpt lat="43.55077" lon="6.65814">
        <ele>237.1</ele>
        <time>2017-04-04T12:22:43Z</time>
      </trkpt>
      <trkpt lat="43.55076" lon="6.65815">
        <ele>237.1</ele>
        <time>2017-04-04T12:23:05Z</time>
      </trkpt>
      <trkpt lat="43.55076" lon="6.65816">
        <ele>237.1</ele>
        <time>2017-04-04T12:23:29Z</time>
      </trkpt>
      <trkpt lat="43.55076" lon="6.65816">
        <ele>237.1</ele>
        <time>2017-04-04T12:23:49Z</time>
      </trkpt>
      <trkpt lat="43.55076" lon="6.65816">
        <ele>237.1</ele>
        <time>2017-04-04T12:24:08Z</time>
      </trkpt>
      <trkpt lat="43.55077" lon="6.65816">
        <ele>236.62</ele>
        <time>2017-04-04T12:24:18Z</time>
      </trkpt>
      <trkpt lat="43.55079" lon="6.65816">
        <ele>236.62</ele>
        <time>2017-04-04T12:24:30Z</time>
      </trkpt>
      <trkpt lat="43.55078" lon="6.65812">
        <ele>237.1</ele>
        <time>2017-04-04T12:24:39Z</time>
      </trkpt>
      <trkpt lat="43.55077" lon="6.65811">
        <ele>237.1</ele>
        <time>2017-04-04T12:24:54Z</time>
      </trkpt>
      <trkpt lat="43.55072" lon="6.65808">
        <ele>237.58</ele>
        <time>2017-04-04T12:25:05Z</time>
      </trkpt>
      <trkpt lat="43.5507" lon="6.65809">
        <ele>237.58</ele>
        <time>2017-04-04T12:25:09Z</time>
      </trkpt>
      <trkpt lat="43.55063" lon="6.65808">
        <ele>237.58</ele>
        <time>2017-04-04T12:25:15Z</time>
      </trkpt>
      <trkpt lat="43.55059" lon="6.6581">
        <ele>237.58</ele>
        <time>2017-04-04T12:25:21Z</time>
      </trkpt>
      <trkpt lat="43.55054" lon="6.65811">
        <ele>238.06</ele>
        <time>2017-04-04T12:25:25Z</time>
      </trkpt>
      <trkpt lat="43.55052" lon="6.65811">
        <ele>238.06</ele>
        <time>2017-04-04T12:25:28Z</time>
      </trkpt>
      <trkpt lat="43.5505" lon="6.65811">
        <ele>238.06</ele>
        <time>2017-04-04T12:25:30Z</time>
      </trkpt>
      <trkpt lat="43.55048" lon="6.65814">
        <ele>238.54</ele>
        <time>2017-04-04T12:25:33Z</time>
      </trkpt>
      <trkpt lat="43.55038" lon="6.65807">
        <ele>238.54</ele>
        <time>2017-04-04T12:25:41Z</time>
      </trkpt>
      <trkpt lat="43.55027" lon="6.65806">
        <ele>239.02</ele>
        <time>2017-04-04T12:25:49Z</time>
      </trkpt>
      <trkpt lat="43.55022" lon="6.65805">
        <ele>239.51</ele>
        <time>2017-04-04T12:25:54Z</time>
      </trkpt>
      <trkpt lat="43.55013" lon="6.65807">
        <ele>239.99</ele>
        <time>2017-04-04T12:26:03Z</time>
      </trkpt>
      <trkpt lat="43.55007" lon="6.65808">
        <ele>240.47</ele>
        <time>2017-04-04T12:26:11Z</time>
      </trkpt>
      <trkpt lat="43.55" lon="6.6581">
        <ele>240.95</ele>
        <time>2017-04-04T12:26:17Z</time>
      </trkpt>
      <trkpt lat="43.54989" lon="6.65815">
        <ele>242.39</ele>
        <time>2017-04-04T12:26:28Z</time>
      </trkpt>
      <trkpt lat="43.54982" lon="6.65819">
        <ele>242.39</ele>
        <time>2017-04-04T12:26:34Z</time>
      </trkpt>
      <trkpt lat="43.54979" lon="6.6582">
        <ele>242.87</ele>
        <time>2017-04-04T12:26:37Z</time>
      </trkpt>
      <trkpt lat="43.54975" lon="6.65822">
        <ele>242.87</ele>
        <time>2017-04-04T12:26:41Z</time>
      </trkpt>
      <trkpt lat="43.54967" lon="6.6583">
        <ele>243.83</ele>
        <time>2017-04-04T12:26:51Z</time>
      </trkpt>
      <trkpt lat="43.54965" lon="6.65831">
        <ele>243.83</ele>
        <time>2017-04-04T12:26:53Z</time>
      </trkpt>
      <trkpt lat="43.54963" lon="6.65832">
        <ele>243.83</ele>
        <time>2017-04-04T12:26:55Z</time>
      </trkpt>
      <trkpt lat="43.54952" lon="6.6584">
        <ele>244.31</ele>
        <time>2017-04-04T12:27:06Z</time>
      </trkpt>
      <trkpt lat="43.54942" lon="6.65844">
        <ele>245.27</ele>
        <time>2017-04-04T12:27:16Z</time>
      </trkpt>
      <trkpt lat="43.54939" lon="6.65845">
        <ele>245.27</ele>
        <time>2017-04-04T12:27:20Z</time>
      </trkpt>
      <trkpt lat="43.54934" lon="6.65846">
        <ele>245.75</ele>
        <time>2017-04-04T12:27:24Z</time>
      </trkpt>
      <trkpt lat="43.54928" lon="6.65848">
        <ele>246.23</ele>
        <time>2017-04-04T12:27:30Z</time>
      </trkpt>
      <trkpt lat="43.54919" lon="6.65851">
        <ele>247.2</ele>
        <time>2017-04-04T12:27:40Z</time>
      </trkpt>
      <trkpt lat="43.54917" lon="6.65851">
        <ele>247.2</ele>
        <time>2017-04-04T12:27:42Z</time>
      </trkpt>
      <trkpt lat="43.54906" lon="6.65847">
        <ele>248.16</ele>
        <time>2017-04-04T12:27:54Z</time>
      </trkpt>
      <trkpt lat="43.54905" lon="6.65847">
        <ele>248.16</ele>
        <time>2017-04-04T12:27:55Z</time>
      </trkpt>
      <trkpt lat="43.54903" lon="6.65845">
        <ele>248.64</ele>
        <time>2017-04-04T12:27:57Z</time>
      </trkpt>
      <trkpt lat="43.54894" lon="6.65841">
        <ele>249.6</ele>
        <time>2017-04-04T12:28:08Z</time>
      </trkpt>
      <trkpt lat="43.54885" lon="6.65835">
        <ele>251.04</ele>
        <time>2017-04-04T12:28:19Z</time>
      </trkpt>
      <trkpt lat="43.54878" lon="6.65833">
        <ele>251.52</ele>
        <time>2017-04-04T12:28:26Z</time>
      </trkpt>
      <trkpt lat="43.54872" lon="6.65833">
        <ele>252.48</ele>
        <time>2017-04-04T12:28:32Z</time>
      </trkpt>
      <trkpt lat="43.5487" lon="6.65835">
        <ele>252.48</ele>
        <time>2017-04-04T12:28:34Z</time>
      </trkpt>
      <trkpt lat="43.54859" lon="6.65843">
        <ele>253.44</ele>
        <time>2017-04-04T12:28:44Z</time>
      </trkpt>
      <trkpt lat="43.54856" lon="6.65844">
        <ele>254.89</ele>
        <time>2017-04-04T12:28:47Z</time>
      </trkpt>
      <trkpt lat="43.54855" lon="6.65845">
        <ele>250.08</ele>
        <time>2017-04-04T12:28:48Z</time>
      </trkpt>
      <trkpt lat="43.54854" lon="6.65845">
        <ele>257.29</ele>
        <time>2017-04-04T12:28:49Z</time>
      </trkpt>
      <trkpt lat="43.54853" lon="6.65847">
        <ele>253.93</ele>
        <time>2017-04-04T12:28:51Z</time>
      </trkpt>
      <trkpt lat="43.54852" lon="6.65847">
        <ele>254.41</ele>
        <time>2017-04-04T12:28:52Z</time>
      </trkpt>
      <trkpt lat="43.5485" lon="6.65848">
        <ele>254.41</ele>
        <time>2017-04-04T12:28:55Z</time>
      </trkpt>
      <trkpt lat="43.54845" lon="6.6585">
        <ele>254.89</ele>
        <time>2017-04-04T12:28:59Z</time>
      </trkpt>
      <trkpt lat="43.54834" lon="6.65857">
        <ele>255.85</ele>
        <time>2017-04-04T12:29:09Z</time>
      </trkpt>
      <trkpt lat="43.54822" lon="6.65862">
        <ele>255.85</ele>
        <time>2017-04-04T12:29:21Z</time>
      </trkpt>
      <trkpt lat="43.54821" lon="6.65863">
        <ele>256.33</ele>
        <time>2017-04-04T12:29:22Z</time>
      </trkpt>
      <trkpt lat="43.54813" lon="6.65867">
        <ele>256.33</ele>
        <time>2017-04-04T12:29:30Z</time>
      </trkpt>
      <trkpt lat="43.54804" lon="6.65869">
        <ele>257.29</ele>
        <time>2017-04-04T12:29:40Z</time>
      </trkpt>
      <trkpt lat="43.54792" lon="6.65874">
        <ele>257.29</ele>
        <time>2017-04-04T12:29:51Z</time>
      </trkpt>
      <trkpt lat="43.54788" lon="6.65871">
        <ele>257.77</ele>
        <time>2017-04-04T12:30:00Z</time>
      </trkpt>
      <trkpt lat="43.5479" lon="6.65867">
        <ele>257.77</ele>
        <time>2017-04-04T12:30:04Z</time>
      </trkpt>
      <trkpt lat="43.54795" lon="6.65862">
        <ele>257.77</ele>
        <time>2017-04-04T12:30:09Z</time>
      </trkpt>
      <trkpt lat="43.54801" lon="6.65853">
        <ele>258.25</ele>
        <time>2017-04-04T12:30:19Z</time>
      </trkpt>
      <trkpt lat="43.54805" lon="6.65849">
        <ele>258.25</ele>
        <time>2017-04-04T12:30:23Z</time>
      </trkpt>
      <trkpt lat="43.54806" lon="6.65846">
        <ele>258.25</ele>
        <time>2017-04-04T12:30:27Z</time>
      </trkpt>
      <trkpt lat="43.54806" lon="6.6584">
        <ele>258.25</ele>
        <time>2017-04-04T12:30:31Z</time>
      </trkpt>
      <trkpt lat="43.54805" lon="6.65832">
        <ele>258.73</ele>
        <time>2017-04-04T12:30:35Z</time>
      </trkpt>
      <trkpt lat="43.54802" lon="6.65828">
        <ele>263.06</ele>
        <time>2017-04-04T12:30:38Z</time>
      </trkpt>
      <trkpt lat="43.54802" lon="6.65827">
        <ele>258.73</ele>
        <time>2017-04-04T12:30:39Z</time>
      </trkpt>
      <trkpt lat="43.54799" lon="6.65822">
        <ele>258.25</ele>
        <time>2017-04-04T12:30:43Z</time>
      </trkpt>
      <trkpt lat="43.54794" lon="6.65811">
        <ele>258.73</ele>
        <time>2017-04-04T12:30:52Z</time>
      </trkpt>
      <trkpt lat="43.5479" lon="6.65803">
        <ele>258.73</ele>
        <time>2017-04-04T12:30:59Z</time>
      </trkpt>
      <trkpt lat="43.54786" lon="6.6579">
        <ele>259.21</ele>
        <time>2017-04-04T12:31:10Z</time>
      </trkpt>
      <trkpt lat="43.54781" lon="6.65778">
        <ele>259.69</ele>
        <time>2017-04-04T12:31:20Z</time>
      </trkpt>
      <trkpt lat="43.54777" lon="6.65767">
        <ele>260.17</ele>
        <time>2017-04-04T12:31:29Z</time>
      </trkpt>
      <trkpt lat="43.54773" lon="6.65755">
        <ele>260.65</ele>
        <time>2017-04-04T12:31:39Z</time>
      </trkpt>
      <trkpt lat="43.54773" lon="6.65753">
        <ele>261.14</ele>
        <time>2017-04-04T12:31:40Z</time>
      </trkpt>
      <trkpt lat="43.54771" lon="6.65749">
        <ele>261.14</ele>
        <time>2017-04-04T12:31:43Z</time>
      </trkpt>
      <trkpt lat="43.54766" lon="6.6574">
        <ele>261.62</ele>
        <time>2017-04-04T12:31:50Z</time>
      </trkpt>
      <trkpt lat="43.54762" lon="6.65731">
        <ele>262.58</ele>
        <time>2017-04-04T12:31:58Z</time>
      </trkpt>
      <trkpt lat="43.5476" lon="6.65724">
        <ele>263.06</ele>
        <time>2017-04-04T12:32:04Z</time>
      </trkpt>
      <trkpt lat="43.54753" lon="6.65721">
        <ele>263.06</ele>
        <time>2017-04-04T12:32:13Z</time>
      </trkpt>
      <trkpt lat="43.54752" lon="6.6572">
        <ele>263.54</ele>
        <time>2017-04-04T12:32:16Z</time>
      </trkpt>
      <trkpt lat="43.5474" lon="6.65718">
        <ele>263.54</ele>
        <time>2017-04-04T12:32:26Z</time>
      </trkpt>
      <trkpt lat="43.54732" lon="6.65717">
        <ele>264.02</ele>
        <time>2017-04-04T12:32:33Z</time>
      </trkpt>
      <trkpt lat="43.54729" lon="6.65714">
        <ele>264.5</ele>
        <time>2017-04-04T12:32:36Z</time>
      </trkpt>
      <trkpt lat="43.54726" lon="6.65712">
        <ele>264.5</ele>
        <time>2017-04-04T12:32:40Z</time>
      </trkpt>
      <trkpt lat="43.54714" lon="6.65708">
        <ele>264.98</ele>
        <time>2017-04-04T12:32:51Z</time>
      </trkpt>
      <trkpt lat="43.54705" lon="6.65704">
        <ele>264.98</ele>
        <time>2017-04-04T12:33:00Z</time>
      </trkpt>
      <trkpt lat="43.54696" lon="6.65697">
        <ele>265.46</ele>
        <time>2017-04-04T12:33:11Z</time>
      </trkpt>
      <trkpt lat="43.54696" lon="6.65694">
        <ele>264.98</ele>
        <time>2017-04-04T12:33:13Z</time>
      </trkpt>
      <trkpt lat="43.54704" lon="6.65688">
        <ele>266.42</ele>
        <time>2017-04-04T12:33:24Z</time>
      </trkpt>
      <trkpt lat="43.54715" lon="6.65683">
        <ele>267.86</ele>
        <time>2017-04-04T12:33:36Z</time>
      </trkpt>
      <trkpt lat="43.54724" lon="6.65679">
        <ele>268.35</ele>
        <time>2017-04-04T12:33:46Z</time>
      </trkpt>
      <trkpt lat="43.54734" lon="6.65675">
        <ele>269.31</ele>
        <time>2017-04-04T12:33:57Z</time>
      </trkpt>
      <trkpt lat="43.54743" lon="6.6567">
        <ele>269.31</ele>
        <time>2017-04-04T12:34:07Z</time>
      </trkpt>
      <trkpt lat="43.54754" lon="6.65664">
        <ele>270.27</ele>
        <time>2017-04-04T12:34:19Z</time>
      </trkpt>
      <trkpt lat="43.54758" lon="6.65661">
        <ele>270.75</ele>
        <time>2017-04-04T12:34:23Z</time>
      </trkpt>
      <trkpt lat="43.54767" lon="6.65651">
        <ele>271.23</ele>
        <time>2017-04-04T12:34:34Z</time>
      </trkpt>
      <trkpt lat="43.54774" lon="6.65641">
        <ele>271.23</ele>
        <time>2017-04-04T12:34:43Z</time>
      </trkpt>
      <trkpt lat="43.5478" lon="6.65631">
        <ele>271.23</ele>
        <time>2017-04-04T12:34:53Z</time>
      </trkpt>
      <trkpt lat="43.54787" lon="6.65622">
        <ele>271.71</ele>
        <time>2017-04-04T12:35:03Z</time>
      </trkpt>
      <trkpt lat="43.54795" lon="6.65615">
        <ele>272.19</ele>
        <time>2017-04-04T12:35:13Z</time>
      </trkpt>
      <trkpt lat="43.54804" lon="6.65607">
        <ele>273.15</ele>
        <time>2017-04-04T12:35:26Z</time>
      </trkpt>
      <trkpt lat="43.54812" lon="6.65605">
        <ele>274.11</ele>
        <time>2017-04-04T12:35:35Z</time>
      </trkpt>
      <trkpt lat="43.54821" lon="6.65601">
        <ele>274.59</ele>
        <time>2017-04-04T12:35:45Z</time>
      </trkpt>
      <trkpt lat="43.5483" lon="6.65595">
        <ele>275.07</ele>
        <time>2017-04-04T12:35:56Z</time>
      </trkpt>
      <trkpt lat="43.54832" lon="6.65593">
        <ele>275.07</ele>
        <time>2017-04-04T12:35:58Z</time>
      </trkpt>
      <trkpt lat="43.54837" lon="6.65589">
        <ele>275.56</ele>
        <time>2017-04-04T12:36:05Z</time>
      </trkpt>
      <trkpt lat="43.54843" lon="6.65578">
        <ele>275.56</ele>
        <time>2017-04-04T12:36:16Z</time>
      </trkpt>
      <trkpt lat="43.54851" lon="6.65567">
        <ele>276.04</ele>
        <time>2017-04-04T12:36:27Z</time>
      </trkpt>
      <trkpt lat="43.5486" lon="6.65555">
        <ele>277.48</ele>
        <time>2017-04-04T12:36:39Z</time>
      </trkpt>
      <trkpt lat="43.54867" lon="6.65543">
        <ele>277</ele>
        <time>2017-04-04T12:36:50Z</time>
      </trkpt>
      <trkpt lat="43.54872" lon="6.65532">
        <ele>277</ele>
        <time>2017-04-04T12:36:59Z</time>
      </trkpt>
      <trkpt lat="43.54876" lon="6.65521">
        <ele>277.48</ele>
        <time>2017-04-04T12:37:09Z</time>
      </trkpt>
      <trkpt lat="43.54882" lon="6.65511">
        <ele>278.44</ele>
        <time>2017-04-04T12:37:18Z</time>
      </trkpt>
      <trkpt lat="43.54885" lon="6.65502">
        <ele>278.92</ele>
        <time>2017-04-04T12:37:25Z</time>
      </trkpt>
      <trkpt lat="43.54888" lon="6.65494">
        <ele>277.48</ele>
        <time>2017-04-04T12:37:32Z</time>
      </trkpt>
      <trkpt lat="43.54894" lon="6.65487">
        <ele>280.36</ele>
        <time>2017-04-04T12:37:40Z</time>
      </trkpt>
      <trkpt lat="43.54896" lon="6.65484">
        <ele>284.69</ele>
        <time>2017-04-04T12:37:44Z</time>
      </trkpt>
      <trkpt lat="43.54897" lon="6.65482">
        <ele>280.84</ele>
        <time>2017-04-04T12:37:45Z</time>
      </trkpt>
      <trkpt lat="43.54902" lon="6.65475">
        <ele>281.8</ele>
        <time>2017-04-04T12:37:52Z</time>
      </trkpt>
      <trkpt lat="43.54904" lon="6.65473">
        <ele>281.8</ele>
        <time>2017-04-04T12:37:54Z</time>
      </trkpt>
      <trkpt lat="43.54911" lon="6.65465">
        <ele>283.25</ele>
        <time>2017-04-04T12:38:04Z</time>
      </trkpt>
      <trkpt lat="43.54918" lon="6.65455">
        <ele>284.21</ele>
        <time>2017-04-04T12:38:15Z</time>
      </trkpt>
      <trkpt lat="43.54926" lon="6.65445">
        <ele>285.65</ele>
        <time>2017-04-04T12:38:26Z</time>
      </trkpt>
      <trkpt lat="43.54929" lon="6.6544">
        <ele>286.13</ele>
        <time>2017-04-04T12:38:31Z</time>
      </trkpt>
      <trkpt lat="43.54935" lon="6.65427">
        <ele>287.09</ele>
        <time>2017-04-04T12:38:43Z</time>
      </trkpt>
      <trkpt lat="43.54938" lon="6.65422">
        <ele>287.09</ele>
        <time>2017-04-04T12:38:48Z</time>
      </trkpt>
      <trkpt lat="43.54942" lon="6.65415">
        <ele>287.57</ele>
        <time>2017-04-04T12:38:54Z</time>
      </trkpt>
      <trkpt lat="43.5495" lon="6.65403">
        <ele>288.53</ele>
        <time>2017-04-04T12:39:06Z</time>
      </trkpt>
      <trkpt lat="43.54956" lon="6.65395">
        <ele>289.49</ele>
        <time>2017-04-04T12:39:16Z</time>
      </trkpt>
      <trkpt lat="43.54955" lon="6.65392">
        <ele>289.97</ele>
        <time>2017-04-04T12:39:28Z</time>
      </trkpt>
      <trkpt lat="43.54955" lon="6.65391">
        <ele>289.97</ele>
        <time>2017-04-04T12:39:46Z</time>
      </trkpt>
      <trkpt lat="43.54955" lon="6.65391">
        <ele>289.97</ele>
        <time>2017-04-04T12:39:59Z</time>
      </trkpt>
      <trkpt lat="43.54955" lon="6.65391">
        <ele>289.97</ele>
        <time>2017-04-04T12:40:18Z</time>
      </trkpt>
      <trkpt lat="43.54954" lon="6.65393">
        <ele>289.49</ele>
        <time>2017-04-04T12:40:30Z</time>
      </trkpt>
      <trkpt lat="43.54952" lon="6.65395">
        <ele>289.49</ele>
        <time>2017-04-04T12:40:33Z</time>
      </trkpt>
      <trkpt lat="43.54951" lon="6.65398">
        <ele>289.01</ele>
        <time>2017-04-04T12:40:43Z</time>
      </trkpt>
      <trkpt lat="43.54952" lon="6.65398">
        <ele>289.01</ele>
        <time>2017-04-04T12:41:02Z</time>
      </trkpt>
      <trkpt lat="43.54956" lon="6.65392">
        <ele>289.49</ele>
        <time>2017-04-04T12:41:13Z</time>
      </trkpt>
      <trkpt lat="43.54956" lon="6.65391">
        <ele>289.49</ele>
        <time>2017-04-04T12:41:37Z</time>
      </trkpt>
      <trkpt lat="43.54955" lon="6.6539">
        <ele>289.49</ele>
        <time>2017-04-04T12:41:49Z</time>
      </trkpt>
      <trkpt lat="43.54956" lon="6.65389">
        <ele>289.97</ele>
        <time>2017-04-04T12:42:11Z</time>
      </trkpt>
      <trkpt lat="43.54955" lon="6.6539">
        <ele>289.49</ele>
        <time>2017-04-04T12:42:29Z</time>
      </trkpt>
      <trkpt lat="43.54955" lon="6.6539">
        <ele>289.49</ele>
        <time>2017-04-04T12:42:52Z</time>
      </trkpt>
      <trkpt lat="43.54955" lon="6.6539">
        <ele>289.97</ele>
        <time>2017-04-04T12:43:12Z</time>
      </trkpt>
      <trkpt lat="43.54956" lon="6.6539">
        <ele>289.49</ele>
        <time>2017-04-04T12:43:29Z</time>
      </trkpt>
      <trkpt lat="43.54959" lon="6.65387">
        <ele>289.97</ele>
        <time>2017-04-04T12:43:40Z</time>
      </trkpt>
      <trkpt lat="43.54961" lon="6.65385">
        <ele>290.94</ele>
        <time>2017-04-04T12:43:43Z</time>
      </trkpt>
      <trkpt lat="43.5497" lon="6.65376">
        <ele>290.94</ele>
        <time>2017-04-04T12:43:53Z</time>
      </trkpt>
      <trkpt lat="43.54978" lon="6.65368">
        <ele>291.42</ele>
        <time>2017-04-04T12:44:02Z</time>
      </trkpt>
      <trkpt lat="43.54987" lon="6.65362">
        <ele>291.9</ele>
        <time>2017-04-04T12:44:13Z</time>
      </trkpt>
      <trkpt lat="43.54988" lon="6.65361">
        <ele>291.9</ele>
        <time>2017-04-04T12:44:15Z</time>
      </trkpt>
      <trkpt lat="43.54992" lon="6.65358">
        <ele>292.38</ele>
        <time>2017-04-04T12:44:20Z</time>
      </trkpt>
      <trkpt lat="43.54995" lon="6.65355">
        <ele>288.05</ele>
        <time>2017-04-04T12:44:23Z</time>
      </trkpt>
      <trkpt lat="43.54996" lon="6.65354">
        <ele>288.05</ele>
        <time>2017-04-04T12:44:24Z</time>
      </trkpt>
      <trkpt lat="43.54996" lon="6.65353">
        <ele>296.22</ele>
        <time>2017-04-04T12:44:25Z</time>
      </trkpt>
      <trkpt lat="43.54997" lon="6.65353">
        <ele>290.94</ele>
        <time>2017-04-04T12:44:26Z</time>
      </trkpt>
      <trkpt lat="43.54999" lon="6.65351">
        <ele>296.22</ele>
        <time>2017-04-04T12:44:28Z</time>
      </trkpt>
      <trkpt lat="43.55" lon="6.6535">
        <ele>292.86</ele>
        <time>2017-04-04T12:44:29Z</time>
      </trkpt>
      <trkpt lat="43.55009" lon="6.65342">
        <ele>293.34</ele>
        <time>2017-04-04T12:44:36Z</time>
      </trkpt>
      <trkpt lat="43.55011" lon="6.65341">
        <ele>297.18</ele>
        <time>2017-04-04T12:44:38Z</time>
      </trkpt>
      <trkpt lat="43.55012" lon="6.6534">
        <ele>293.82</ele>
        <time>2017-04-04T12:44:39Z</time>
      </trkpt>
      <trkpt lat="43.55013" lon="6.65338">
        <ele>293.82</ele>
        <time>2017-04-04T12:44:41Z</time>
      </trkpt>
      <trkpt lat="43.55024" lon="6.65328">
        <ele>293.82</ele>
        <time>2017-04-04T12:44:52Z</time>
      </trkpt>
      <trkpt lat="43.55031" lon="6.6532">
        <ele>293.34</ele>
        <time>2017-04-04T12:45:03Z</time>
      </trkpt>
      <trkpt lat="43.55032" lon="6.65319">
        <ele>293.34</ele>
        <time>2017-04-04T12:45:04Z</time>
      </trkpt>
      <trkpt lat="43.55033" lon="6.65315">
        <ele>293.34</ele>
        <time>2017-04-04T12:45:08Z</time>
      </trkpt>
      <trkpt lat="43.55035" lon="6.65309">
        <ele>293.34</ele>
        <time>2017-04-04T12:45:12Z</time>
      </trkpt>
      <trkpt lat="43.55037" lon="6.653">
        <ele>293.34</ele>
        <time>2017-04-04T12:45:19Z</time>
      </trkpt>
      <trkpt lat="43.55038" lon="6.65296">
        <ele>293.34</ele>
        <time>2017-04-04T12:45:22Z</time>
      </trkpt>
      <trkpt lat="43.55042" lon="6.65281">
        <ele>292.86</ele>
        <time>2017-04-04T12:45:33Z</time>
      </trkpt>
      <trkpt lat="43.55047" lon="6.65265">
        <ele>292.38</ele>
        <time>2017-04-04T12:45:45Z</time>
      </trkpt>
      <trkpt lat="43.55052" lon="6.65249">
        <ele>291.9</ele>
        <time>2017-04-04T12:45:57Z</time>
      </trkpt>
      <trkpt lat="43.55054" lon="6.65242">
        <ele>291.9</ele>
        <time>2017-04-04T12:46:02Z</time>
      </trkpt>
      <trkpt lat="43.55061" lon="6.65226">
        <ele>291.9</ele>
        <time>2017-04-04T12:46:14Z</time>
      </trkpt>
      <trkpt lat="43.55065" lon="6.65216">
        <ele>291.42</ele>
        <time>2017-04-04T12:46:22Z</time>
      </trkpt>
      <trkpt lat="43.55069" lon="6.65207">
        <ele>291.42</ele>
        <time>2017-04-04T12:46:29Z</time>
      </trkpt>
      <trkpt lat="43.55071" lon="6.65198">
        <ele>291.9</ele>
        <time>2017-04-04T12:46:36Z</time>
      </trkpt>
      <trkpt lat="43.55075" lon="6.65182">
        <ele>291.9</ele>
        <time>2017-04-04T12:46:47Z</time>
      </trkpt>
      <trkpt lat="43.55077" lon="6.65174">
        <ele>291.9</ele>
        <time>2017-04-04T12:46:53Z</time>
      </trkpt>
      <trkpt lat="43.5508" lon="6.6516">
        <ele>292.38</ele>
        <time>2017-04-04T12:47:03Z</time>
      </trkpt>
      <trkpt lat="43.55087" lon="6.65142">
        <ele>292.38</ele>
        <time>2017-04-04T12:47:17Z</time>
      </trkpt>
      <trkpt lat="43.55089" lon="6.65138">
        <ele>292.38</ele>
        <time>2017-04-04T12:47:20Z</time>
      </trkpt>
      <trkpt lat="43.55091" lon="6.65135">
        <ele>292.38</ele>
        <time>2017-04-04T12:47:23Z</time>
      </trkpt>
      <trkpt lat="43.55099" lon="6.65121">
        <ele>292.86</ele>
        <time>2017-04-04T12:47:35Z</time>
      </trkpt>
      <trkpt lat="43.55103" lon="6.65113">
        <ele>293.34</ele>
        <time>2017-04-04T12:47:42Z</time>
      </trkpt>
      <trkpt lat="43.5511" lon="6.65099">
        <ele>293.82</ele>
        <time>2017-04-04T12:47:54Z</time>
      </trkpt>
      <trkpt lat="43.55116" lon="6.65081">
        <ele>293.82</ele>
        <time>2017-04-04T12:48:07Z</time>
      </trkpt>
      <trkpt lat="43.55118" lon="6.65069">
        <ele>294.3</ele>
        <time>2017-04-04T12:48:15Z</time>
      </trkpt>
      <trkpt lat="43.55122" lon="6.65059">
        <ele>294.3</ele>
        <time>2017-04-04T12:48:25Z</time>
      </trkpt>
      <trkpt lat="43.55124" lon="6.65054">
        <ele>294.3</ele>
        <time>2017-04-04T12:48:29Z</time>
      </trkpt>
      <trkpt lat="43.55127" lon="6.6504">
        <ele>294.78</ele>
        <time>2017-04-04T12:48:38Z</time>
      </trkpt>
      <trkpt lat="43.55134" lon="6.65024">
        <ele>295.26</ele>
        <time>2017-04-04T12:48:50Z</time>
      </trkpt>
      <trkpt lat="43.5514" lon="6.65011">
        <ele>295.26</ele>
        <time>2017-04-04T12:49:01Z</time>
      </trkpt>
      <trkpt lat="43.55147" lon="6.65">
        <ele>295.74</ele>
        <time>2017-04-04T12:49:12Z</time>
      </trkpt>
      <trkpt lat="43.55153" lon="6.64988">
        <ele>296.22</ele>
        <time>2017-04-04T12:49:22Z</time>
      </trkpt>
      <trkpt lat="43.55158" lon="6.64971">
        <ele>297.18</ele>
        <time>2017-04-04T12:49:35Z</time>
      </trkpt>
      <trkpt lat="43.55157" lon="6.64954">
        <ele>297.67</ele>
        <time>2017-04-04T12:49:47Z</time>
      </trkpt>
      <trkpt lat="43.55151" lon="6.6494">
        <ele>297.67</ele>
        <time>2017-04-04T12:49:58Z</time>
      </trkpt>
      <trkpt lat="43.55144" lon="6.64928">
        <ele>297.18</ele>
        <time>2017-04-04T12:50:08Z</time>
      </trkpt>
      <trkpt lat="43.55136" lon="6.64918">
        <ele>296.7</ele>
        <time>2017-04-04T12:50:18Z</time>
      </trkpt>
      <trkpt lat="43.55131" lon="6.64912">
        <ele>296.22</ele>
        <time>2017-04-04T12:50:24Z</time>
      </trkpt>
      <trkpt lat="43.55128" lon="6.64908">
        <ele>296.22</ele>
        <time>2017-04-04T12:50:28Z</time>
      </trkpt>
      <trkpt lat="43.55123" lon="6.64897">
        <ele>296.22</ele>
        <time>2017-04-04T12:50:37Z</time>
      </trkpt>
      <trkpt lat="43.55118" lon="6.64887">
        <ele>296.22</ele>
        <time>2017-04-04T12:50:48Z</time>
      </trkpt>
      <trkpt lat="43.55118" lon="6.64888">
        <ele>296.22</ele>
        <time>2017-04-04T12:51:02Z</time>
      </trkpt>
      <trkpt lat="43.55118" lon="6.64885">
        <ele>296.22</ele>
        <time>2017-04-04T12:51:11Z</time>
      </trkpt>
      <trkpt lat="43.55117" lon="6.64885">
        <ele>296.22</ele>
        <time>2017-04-04T12:51:26Z</time>
      </trkpt>
      <trkpt lat="43.55117" lon="6.64884">
        <ele>296.22</ele>
        <time>2017-04-04T12:51:46Z</time>
      </trkpt>
      <trkpt lat="43.55116" lon="6.64884">
        <ele>296.22</ele>
        <time>2017-04-04T12:52:03Z</time>
      </trkpt>
      <trkpt lat="43.55117" lon="6.64884">
        <ele>298.15</ele>
        <time>2017-04-04T12:52:23Z</time>
      </trkpt>
      <trkpt lat="43.55117" lon="6.64884">
        <ele>293.82</ele>
        <time>2017-04-04T12:52:41Z</time>
      </trkpt>
      <trkpt lat="43.55117" lon="6.64884">
        <ele>299.11</ele>
        <time>2017-04-04T12:52:42Z</time>
      </trkpt>
      <trkpt lat="43.55117" lon="6.64884">
        <ele>296.22</ele>
        <time>2017-04-04T12:52:45Z</time>
      </trkpt>
      <trkpt lat="43.55117" lon="6.64883">
        <ele>296.22</ele>
        <time>2017-04-04T12:52:56Z</time>
      </trkpt>
      <trkpt lat="43.55116" lon="6.64883">
        <ele>295.74</ele>
        <time>2017-04-04T12:53:09Z</time>
      </trkpt>
      <trkpt lat="43.55117" lon="6.64883">
        <ele>296.22</ele>
        <time>2017-04-04T12:53:29Z</time>
      </trkpt>
      <trkpt lat="43.55117" lon="6.64884">
        <ele>295.74</ele>
        <time>2017-04-04T12:53:51Z</time>
      </trkpt>
      <trkpt lat="43.55118" lon="6.64884">
        <ele>295.74</ele>
        <time>2017-04-04T12:54:07Z</time>
      </trkpt>
      <trkpt lat="43.55117" lon="6.64883">
        <ele>295.74</ele>
        <time>2017-04-04T12:54:08Z</time>
      </trkpt>
      <trkpt lat="43.55118" lon="6.64879">
        <ele>295.74</ele>
        <time>2017-04-04T12:54:11Z</time>
      </trkpt>
      <trkpt lat="43.55122" lon="6.64876">
        <ele>295.26</ele>
        <time>2017-04-04T12:54:15Z</time>
      </trkpt>
      <trkpt lat="43.55129" lon="6.64881">
        <ele>294.3</ele>
        <time>2017-04-04T12:54:26Z</time>
      </trkpt>
      <trkpt lat="43.55131" lon="6.64887">
        <ele>293.82</ele>
        <time>2017-04-04T12:54:32Z</time>
      </trkpt>
      <trkpt lat="43.55132" lon="6.64888">
        <ele>293.82</ele>
        <time>2017-04-04T12:54:34Z</time>
      </trkpt>
      <trkpt lat="43.55133" lon="6.64893">
        <ele>293.82</ele>
        <time>2017-04-04T12:54:38Z</time>
      </trkpt>
      <trkpt lat="43.55136" lon="6.64895">
        <ele>294.3</ele>
        <time>2017-04-04T12:54:41Z</time>
      </trkpt>
      <trkpt lat="43.55145" lon="6.64901">
        <ele>293.34</ele>
        <time>2017-04-04T12:54:50Z</time>
      </trkpt>
      <trkpt lat="43.55147" lon="6.64902">
        <ele>293.34</ele>
        <time>2017-04-04T12:54:52Z</time>
      </trkpt>
      <trkpt lat="43.55159" lon="6.64909">
        <ele>293.34</ele>
        <time>2017-04-04T12:55:03Z</time>
      </trkpt>
      <trkpt lat="43.55164" lon="6.64908">
        <ele>293.34</ele>
        <time>2017-04-04T12:55:08Z</time>
      </trkpt>
      <trkpt lat="43.55171" lon="6.6491">
        <ele>293.34</ele>
        <time>2017-04-04T12:55:14Z</time>
      </trkpt>
      <trkpt lat="43.55185" lon="6.64903">
        <ele>293.34</ele>
        <time>2017-04-04T12:55:26Z</time>
      </trkpt>
      <trkpt lat="43.55198" lon="6.64899">
        <ele>293.82</ele>
        <time>2017-04-04T12:55:38Z</time>
      </trkpt>
      <trkpt lat="43.552" lon="6.64899">
        <ele>294.3</ele>
        <time>2017-04-04T12:55:40Z</time>
      </trkpt>
      <trkpt lat="43.55212" lon="6.64895">
        <ele>294.78</ele>
        <time>2017-04-04T12:55:51Z</time>
      </trkpt>
      <trkpt lat="43.55221" lon="6.64891">
        <ele>295.26</ele>
        <time>2017-04-04T12:56:01Z</time>
      </trkpt>
      <trkpt lat="43.55232" lon="6.64887">
        <ele>296.22</ele>
        <time>2017-04-04T12:56:13Z</time>
      </trkpt>
      <trkpt lat="43.55234" lon="6.64886">
        <ele>296.22</ele>
        <time>2017-04-04T12:56:21Z</time>
      </trkpt>
      <trkpt lat="43.55236" lon="6.64884">
        <ele>296.22</ele>
        <time>2017-04-04T12:56:23Z</time>
      </trkpt>
      <trkpt lat="43.55243" lon="6.6488">
        <ele>297.18</ele>
        <time>2017-04-04T12:56:30Z</time>
      </trkpt>
      <trkpt lat="43.55249" lon="6.64879">
        <ele>297.18</ele>
        <time>2017-04-04T12:56:35Z</time>
      </trkpt>
      <trkpt lat="43.55255" lon="6.64878">
        <ele>298.15</ele>
        <time>2017-04-04T12:56:42Z</time>
      </trkpt>
      <trkpt lat="43.55257" lon="6.64879">
        <ele>298.15</ele>
        <time>2017-04-04T12:56:44Z</time>
      </trkpt>
      <trkpt lat="43.55268" lon="6.64882">
        <ele>299.11</ele>
        <time>2017-04-04T12:56:55Z</time>
      </trkpt>
      <trkpt lat="43.55272" lon="6.64886">
        <ele>299.59</ele>
        <time>2017-04-04T12:57:01Z</time>
      </trkpt>
      <trkpt lat="43.55279" lon="6.64899">
        <ele>300.07</ele>
        <time>2017-04-04T12:57:13Z</time>
      </trkpt>
      <trkpt lat="43.55285" lon="6.6491">
        <ele>300.07</ele>
        <time>2017-04-04T12:57:23Z</time>
      </trkpt>
      <trkpt lat="43.5529" lon="6.64926">
        <ele>300.07</ele>
        <time>2017-04-04T12:57:35Z</time>
      </trkpt>
      <trkpt lat="43.55292" lon="6.64943">
        <ele>300.07</ele>
        <time>2017-04-04T12:57:47Z</time>
      </trkpt>
      <trkpt lat="43.55296" lon="6.64955">
        <ele>300.55</ele>
        <time>2017-04-04T12:57:56Z</time>
      </trkpt>
      <trkpt lat="43.55297" lon="6.64957">
        <ele>300.55</ele>
        <time>2017-04-04T12:57:57Z</time>
      </trkpt>
      <trkpt lat="43.55303" lon="6.64965">
        <ele>300.07</ele>
        <time>2017-04-04T12:58:05Z</time>
      </trkpt>
      <trkpt lat="43.55306" lon="6.64969">
        <ele>300.07</ele>
        <time>2017-04-04T12:58:08Z</time>
      </trkpt>
      <trkpt lat="43.55309" lon="6.64972">
        <ele>300.07</ele>
        <time>2017-04-04T12:58:11Z</time>
      </trkpt>
      <trkpt lat="43.55315" lon="6.64984">
        <ele>300.55</ele>
        <time>2017-04-04T12:58:21Z</time>
      </trkpt>
      <trkpt lat="43.55321" lon="6.64999">
        <ele>301.03</ele>
        <time>2017-04-04T12:58:33Z</time>
      </trkpt>
      <trkpt lat="43.55326" lon="6.65008">
        <ele>301.99</ele>
        <time>2017-04-04T12:58:42Z</time>
      </trkpt>
      <trkpt lat="43.55331" lon="6.6502">
        <ele>302.95</ele>
        <time>2017-04-04T12:58:52Z</time>
      </trkpt>
      <trkpt lat="43.55334" lon="6.65025">
        <ele>303.43</ele>
        <time>2017-04-04T12:58:56Z</time>
      </trkpt>
      <trkpt lat="43.55339" lon="6.65042">
        <ele>303.91</ele>
        <time>2017-04-04T12:59:08Z</time>
      </trkpt>
      <trkpt lat="43.55343" lon="6.65047">
        <ele>304.39</ele>
        <time>2017-04-04T12:59:13Z</time>
      </trkpt>
      <trkpt lat="43.55346" lon="6.65051">
        <ele>304.88</ele>
        <time>2017-04-04T12:59:16Z</time>
      </trkpt>
      <trkpt lat="43.55355" lon="6.65056">
        <ele>305.36</ele>
        <time>2017-04-04T12:59:25Z</time>
      </trkpt>
      <trkpt lat="43.55359" lon="6.65057">
        <ele>305.84</ele>
        <time>2017-04-04T12:59:29Z</time>
      </trkpt>
      <trkpt lat="43.55368" lon="6.65048">
        <ele>306.32</ele>
        <time>2017-04-04T12:59:41Z</time>
      </trkpt>
      <trkpt lat="43.55368" lon="6.65045">
        <ele>306.8</ele>
        <time>2017-04-04T12:59:52Z</time>
      </trkpt>
      <trkpt lat="43.55368" lon="6.65045">
        <ele>306.32</ele>
        <time>2017-04-04T13:00:07Z</time>
      </trkpt>
      <trkpt lat="43.55368" lon="6.65044">
        <ele>306.32</ele>
        <time>2017-04-04T13:00:21Z</time>
      </trkpt>
      <trkpt lat="43.55365" lon="6.65046">
        <ele>306.32</ele>
        <time>2017-04-04T13:00:31Z</time>
      </trkpt>
      <trkpt lat="43.55364" lon="6.65048">
        <ele>307.28</ele>
        <time>2017-04-04T13:00:42Z</time>
      </trkpt>
      <trkpt lat="43.55364" lon="6.65047">
        <ele>306.32</ele>
        <time>2017-04-04T13:01:05Z</time>
      </trkpt>
      <trkpt lat="43.55365" lon="6.65048">
        <ele>306.32</ele>
        <time>2017-04-04T13:01:23Z</time>
      </trkpt>
      <trkpt lat="43.55365" lon="6.65048">
        <ele>306.32</ele>
        <time>2017-04-04T13:01:44Z</time>
      </trkpt>
      <trkpt lat="43.55367" lon="6.6505">
        <ele>306.8</ele>
        <time>2017-04-04T13:01:52Z</time>
      </trkpt>
      <trkpt lat="43.55367" lon="6.65048">
        <ele>306.32</ele>
        <time>2017-04-04T13:02:06Z</time>
      </trkpt>
      <trkpt lat="43.55366" lon="6.65048">
        <ele>306.32</ele>
        <time>2017-04-04T13:02:21Z</time>
      </trkpt>
      <trkpt lat="43.55367" lon="6.65048">
        <ele>306.8</ele>
        <time>2017-04-04T13:02:34Z</time>
      </trkpt>
      <trkpt lat="43.55368" lon="6.65046">
        <ele>307.76</ele>
        <time>2017-04-04T13:02:42Z</time>
      </trkpt>
      <trkpt lat="43.55373" lon="6.65041">
        <ele>306.8</ele>
        <time>2017-04-04T13:02:48Z</time>
      </trkpt>
      <trkpt lat="43.55375" lon="6.65039">
        <ele>307.28</ele>
        <time>2017-04-04T13:02:50Z</time>
      </trkpt>
      <trkpt lat="43.55379" lon="6.65031">
        <ele>307.28</ele>
        <time>2017-04-04T13:02:58Z</time>
      </trkpt>
      <trkpt lat="43.55387" lon="6.65022">
        <ele>307.76</ele>
        <time>2017-04-04T13:03:06Z</time>
      </trkpt>
      <trkpt lat="43.55393" lon="6.65014">
        <ele>307.76</ele>
        <time>2017-04-04T13:03:13Z</time>
      </trkpt>
      <trkpt lat="43.55402" lon="6.65">
        <ele>308.72</ele>
        <time>2017-04-04T13:03:25Z</time>
      </trkpt>
      <trkpt lat="43.55406" lon="6.64995">
        <ele>309.2</ele>
        <time>2017-04-04T13:03:31Z</time>
      </trkpt>
      <trkpt lat="43.55416" lon="6.64983">
        <ele>310.16</ele>
        <time>2017-04-04T13:03:43Z</time>
      </trkpt>
      <trkpt lat="43.55423" lon="6.64972">
        <ele>311.12</ele>
        <time>2017-04-04T13:03:53Z</time>
      </trkpt>
      <trkpt lat="43.55425" lon="6.64969">
        <ele>311.12</ele>
        <time>2017-04-04T13:03:56Z</time>
      </trkpt>
      <trkpt lat="43.55437" lon="6.64954">
        <ele>312.57</ele>
        <time>2017-04-04T13:04:08Z</time>
      </trkpt>
      <trkpt lat="43.55446" lon="6.64943">
        <ele>313.05</ele>
        <time>2017-04-04T13:04:18Z</time>
      </trkpt>
      <trkpt lat="43.55452" lon="6.64934">
        <ele>313.53</ele>
        <time>2017-04-04T13:04:26Z</time>
      </trkpt>
      <trkpt lat="43.5546" lon="6.64921">
        <ele>314.49</ele>
        <time>2017-04-04T13:04:37Z</time>
      </trkpt>
      <trkpt lat="43.55468" lon="6.64911">
        <ele>315.45</ele>
        <time>2017-04-04T13:04:47Z</time>
      </trkpt>
      <trkpt lat="43.55469" lon="6.64909">
        <ele>315.45</ele>
        <time>2017-04-04T13:04:49Z</time>
      </trkpt>
      <trkpt lat="43.55478" lon="6.64897">
        <ele>316.41</ele>
        <time>2017-04-04T13:05:01Z</time>
      </trkpt>
      <trkpt lat="43.55484" lon="6.64887">
        <ele>316.41</ele>
        <time>2017-04-04T13:05:12Z</time>
      </trkpt>
      <trkpt lat="43.55492" lon="6.64879">
        <ele>316.41</ele>
        <time>2017-04-04T13:05:22Z</time>
      </trkpt>
      <trkpt lat="43.55502" lon="6.64868">
        <ele>316.41</ele>
        <time>2017-04-04T13:05:32Z</time>
      </trkpt>
      <trkpt lat="43.55508" lon="6.64862">
        <ele>316.89</ele>
        <time>2017-04-04T13:05:38Z</time>
      </trkpt>
      <trkpt lat="43.55518" lon="6.64848">
        <ele>316.89</ele>
        <time>2017-04-04T13:05:50Z</time>
      </trkpt>
      <trkpt lat="43.55525" lon="6.64838">
        <ele>317.37</ele>
        <time>2017-04-04T13:06:00Z</time>
      </trkpt>
      <trkpt lat="43.55534" lon="6.64826">
        <ele>317.37</ele>
        <time>2017-04-04T13:06:12Z</time>
      </trkpt>
      <trkpt lat="43.55542" lon="6.6482">
        <ele>317.85</ele>
        <time>2017-04-04T13:06:22Z</time>
      </trkpt>
      <trkpt lat="43.5555" lon="6.64814">
        <ele>317.85</ele>
        <time>2017-04-04T13:06:31Z</time>
      </trkpt>
      <trkpt lat="43.55561" lon="6.64805">
        <ele>317.85</ele>
        <time>2017-04-04T13:06:43Z</time>
      </trkpt>
      <trkpt lat="43.55562" lon="6.64805">
        <ele>317.85</ele>
        <time>2017-04-04T13:06:44Z</time>
      </trkpt>
      <trkpt lat="43.55574" lon="6.64796">
        <ele>316.89</ele>
        <time>2017-04-04T13:06:56Z</time>
      </trkpt>
      <trkpt lat="43.55575" lon="6.64796">
        <ele>311.12</ele>
        <time>2017-04-04T13:06:57Z</time>
      </trkpt>
      <trkpt lat="43.55576" lon="6.64796">
        <ele>321.22</ele>
        <time>2017-04-04T13:06:58Z</time>
      </trkpt>
      <trkpt lat="43.55577" lon="6.64796">
        <ele>316.89</ele>
        <time>2017-04-04T13:06:59Z</time>
      </trkpt>
      <trkpt lat="43.55578" lon="6.64795">
        <ele>315.93</ele>
        <time>2017-04-04T13:07:01Z</time>
      </trkpt>
      <trkpt lat="43.5559" lon="6.64789">
        <ele>315.45</ele>
        <time>2017-04-04T13:07:13Z</time>
      </trkpt>
      <trkpt lat="43.55598" lon="6.64783">
        <ele>314.97</ele>
        <time>2017-04-04T13:07:22Z</time>
      </trkpt>
      <trkpt lat="43.5561" lon="6.64777">
        <ele>314.97</ele>
        <time>2017-04-04T13:07:34Z</time>
      </trkpt>
      <trkpt lat="43.55622" lon="6.64774">
        <ele>314.01</ele>
        <time>2017-04-04T13:07:46Z</time>
      </trkpt>
      <trkpt lat="43.55623" lon="6.64774">
        <ele>314.01</ele>
        <time>2017-04-04T13:07:47Z</time>
      </trkpt>
      <trkpt lat="43.55635" lon="6.64778">
        <ele>313.53</ele>
        <time>2017-04-04T13:07:58Z</time>
      </trkpt>
      <trkpt lat="43.55643" lon="6.64782">
        <ele>312.57</ele>
        <time>2017-04-04T13:08:07Z</time>
      </trkpt>
      <trkpt lat="43.55646" lon="6.64786">
        <ele>312.09</ele>
        <time>2017-04-04T13:08:11Z</time>
      </trkpt>
      <trkpt lat="43.55648" lon="6.64788">
        <ele>311.6</ele>
        <time>2017-04-04T13:08:14Z</time>
      </trkpt>
      <trkpt lat="43.55653" lon="6.64793">
        <ele>311.12</ele>
        <time>2017-04-04T13:08:19Z</time>
      </trkpt>
      <trkpt lat="43.55654" lon="6.64797">
        <ele>310.64</ele>
        <time>2017-04-04T13:08:22Z</time>
      </trkpt>
      <trkpt lat="43.55657" lon="6.648">
        <ele>310.64</ele>
        <time>2017-04-04T13:08:26Z</time>
      </trkpt>
      <trkpt lat="43.55663" lon="6.64806">
        <ele>309.68</ele>
        <time>2017-04-04T13:08:33Z</time>
      </trkpt>
      <trkpt lat="43.55674" lon="6.64814">
        <ele>308.72</ele>
        <time>2017-04-04T13:08:44Z</time>
      </trkpt>
      <trkpt lat="43.5568" lon="6.64822">
        <ele>307.76</ele>
        <time>2017-04-04T13:08:53Z</time>
      </trkpt>
      <trkpt lat="43.55681" lon="6.64828">
        <ele>307.28</ele>
        <time>2017-04-04T13:08:57Z</time>
      </trkpt>
      <trkpt lat="43.55685" lon="6.64834">
        <ele>306.8</ele>
        <time>2017-04-04T13:09:03Z</time>
      </trkpt>
      <trkpt lat="43.55686" lon="6.64839">
        <ele>306.32</ele>
        <time>2017-04-04T13:09:06Z</time>
      </trkpt>
      <trkpt lat="43.55687" lon="6.64843">
        <ele>306.32</ele>
        <time>2017-04-04T13:09:09Z</time>
      </trkpt>
      <trkpt lat="43.55689" lon="6.64847">
        <ele>305.84</ele>
        <time>2017-04-04T13:09:12Z</time>
      </trkpt>
      <trkpt lat="43.55693" lon="6.64855">
        <ele>305.36</ele>
        <time>2017-04-04T13:09:18Z</time>
      </trkpt>
      <trkpt lat="43.55698" lon="6.64861">
        <ele>304.88</ele>
        <time>2017-04-04T13:09:26Z</time>
      </trkpt>
      <trkpt lat="43.55707" lon="6.64864">
        <ele>303.91</ele>
        <time>2017-04-04T13:09:37Z</time>
      </trkpt>
      <trkpt lat="43.55716" lon="6.64863">
        <ele>303.43</ele>
        <time>2017-04-04T13:09:46Z</time>
      </trkpt>
      <trkpt lat="43.55719" lon="6.64862">
        <ele>303.43</ele>
        <time>2017-04-04T13:09:48Z</time>
      </trkpt>
      <trkpt lat="43.55727" lon="6.6486">
        <ele>302.95</ele>
        <time>2017-04-04T13:09:56Z</time>
      </trkpt>
      <trkpt lat="43.55732" lon="6.64858">
        <ele>302.95</ele>
        <time>2017-04-04T13:10:00Z</time>
      </trkpt>
      <trkpt lat="43.5574" lon="6.64857">
        <ele>302.47</ele>
        <time>2017-04-04T13:10:07Z</time>
      </trkpt>
      <trkpt lat="43.55754" lon="6.64859">
        <ele>301.51</ele>
        <time>2017-04-04T13:10:20Z</time>
      </trkpt>
      <trkpt lat="43.55766" lon="6.64862">
        <ele>301.51</ele>
        <time>2017-04-04T13:10:30Z</time>
      </trkpt>
      <trkpt lat="43.55778" lon="6.64866">
        <ele>300.55</ele>
        <time>2017-04-04T13:10:41Z</time>
      </trkpt>
      <trkpt lat="43.55789" lon="6.64869">
        <ele>300.07</ele>
        <time>2017-04-04T13:10:52Z</time>
      </trkpt>
      <trkpt lat="43.55795" lon="6.64872">
        <ele>299.59</ele>
        <time>2017-04-04T13:10:59Z</time>
      </trkpt>
      <trkpt lat="43.55797" lon="6.64873">
        <ele>300.07</ele>
        <time>2017-04-04T13:11:02Z</time>
      </trkpt>
      <trkpt lat="43.55801" lon="6.64875">
        <ele>299.59</ele>
        <time>2017-04-04T13:11:05Z</time>
      </trkpt>
      <trkpt lat="43.55808" lon="6.64873">
        <ele>299.59</ele>
        <time>2017-04-04T13:11:12Z</time>
      </trkpt>
      <trkpt lat="43.55813" lon="6.64871">
        <ele>299.11</ele>
        <time>2017-04-04T13:11:16Z</time>
      </trkpt>
      <trkpt lat="43.55822" lon="6.64857">
        <ele>298.63</ele>
        <time>2017-04-04T13:11:28Z</time>
      </trkpt>
      <trkpt lat="43.55827" lon="6.64848">
        <ele>298.15</ele>
        <time>2017-04-04T13:11:34Z</time>
      </trkpt>
      <trkpt lat="43.55827" lon="6.64845">
        <ele>293.34</ele>
        <time>2017-04-04T13:11:36Z</time>
      </trkpt>
      <trkpt lat="43.55828" lon="6.64843">
        <ele>302.95</ele>
        <time>2017-04-04T13:11:37Z</time>
      </trkpt>
      <trkpt lat="43.55829" lon="6.64841">
        <ele>297.67</ele>
        <time>2017-04-04T13:11:38Z</time>
      </trkpt>
      <trkpt lat="43.55831" lon="6.64836">
        <ele>297.67</ele>
        <time>2017-04-04T13:11:42Z</time>
      </trkpt>
      <trkpt lat="43.55834" lon="6.64832">
        <ele>297.67</ele>
        <time>2017-04-04T13:11:45Z</time>
      </trkpt>
      <trkpt lat="43.55838" lon="6.64822">
        <ele>297.67</ele>
        <time>2017-04-04T13:11:53Z</time>
      </trkpt>
      <trkpt lat="43.55839" lon="6.64818">
        <ele>297.18</ele>
        <time>2017-04-04T13:11:56Z</time>
      </trkpt>
      <trkpt lat="43.55844" lon="6.64802">
        <ele>297.18</ele>
        <time>2017-04-04T13:12:07Z</time>
      </trkpt>
      <trkpt lat="43.55851" lon="6.64783">
        <ele>297.18</ele>
        <time>2017-04-04T13:12:19Z</time>
      </trkpt>
      <trkpt lat="43.55855" lon="6.64768">
        <ele>297.18</ele>
        <time>2017-04-04T13:12:30Z</time>
      </trkpt>
      <trkpt lat="43.55857" lon="6.64763">
        <ele>297.67</ele>
        <time>2017-04-04T13:12:34Z</time>
      </trkpt>
      <trkpt lat="43.55858" lon="6.64755">
        <ele>297.67</ele>
        <time>2017-04-04T13:12:40Z</time>
      </trkpt>
      <trkpt lat="43.55862" lon="6.64747">
        <ele>297.67</ele>
        <time>2017-04-04T13:12:47Z</time>
      </trkpt>
      <trkpt lat="43.55866" lon="6.64738">
        <ele>298.15</ele>
        <time>2017-04-04T13:12:56Z</time>
      </trkpt>
      <trkpt lat="43.55873" lon="6.64714">
        <ele>299.11</ele>
        <time>2017-04-04T13:13:10Z</time>
      </trkpt>
      <trkpt lat="43.55878" lon="6.64699">
        <ele>299.11</ele>
        <time>2017-04-04T13:13:20Z</time>
      </trkpt>
      <trkpt lat="43.55882" lon="6.6468">
        <ele>299.11</ele>
        <time>2017-04-04T13:13:34Z</time>
      </trkpt>
      <trkpt lat="43.55882" lon="6.64676">
        <ele>298.63</ele>
        <time>2017-04-04T13:13:44Z</time>
      </trkpt>
      <trkpt lat="43.55883" lon="6.64677">
        <ele>299.11</ele>
        <time>2017-04-04T13:13:57Z</time>
      </trkpt>
      <trkpt lat="43.55883" lon="6.64677">
        <ele>299.59</ele>
        <time>2017-04-04T13:14:16Z</time>
      </trkpt>
      <trkpt lat="43.55879" lon="6.64683">
        <ele>299.11</ele>
        <time>2017-04-04T13:14:27Z</time>
      </trkpt>
      <trkpt lat="43.55879" lon="6.64683">
        <ele>298.63</ele>
        <time>2017-04-04T13:14:36Z</time>
      </trkpt>
      <trkpt lat="43.55878" lon="6.64682">
        <ele>301.99</ele>
        <time>2017-04-04T13:14:41Z</time>
      </trkpt>
      <trkpt lat="43.55878" lon="6.64682">
        <ele>299.11</ele>
        <time>2017-04-04T13:14:44Z</time>
      </trkpt>
      <trkpt lat="43.55878" lon="6.64683">
        <ele>299.11</ele>
        <time>2017-04-04T13:14:56Z</time>
      </trkpt>
      <trkpt lat="43.55879" lon="6.64683">
        <ele>291.9</ele>
        <time>2017-04-04T13:15:02Z</time>
      </trkpt>
      <trkpt lat="43.55878" lon="6.64683">
        <ele>301.99</ele>
        <time>2017-04-04T13:15:03Z</time>
      </trkpt>
      <trkpt lat="43.55878" lon="6.64683">
        <ele>299.11</ele>
        <time>2017-04-04T13:15:07Z</time>
      </trkpt>
      <trkpt lat="43.55878" lon="6.64683">
        <ele>299.11</ele>
        <time>2017-04-04T13:15:15Z</time>
      </trkpt>
      <trkpt lat="43.55878" lon="6.64684">
        <ele>299.11</ele>
        <time>2017-04-04T13:15:28Z</time>
      </trkpt>
      <trkpt lat="43.55878" lon="6.64683">
        <ele>299.11</ele>
        <time>2017-04-04T13:15:47Z</time>
      </trkpt>
      <trkpt lat="43.55878" lon="6.64683">
        <ele>299.11</ele>
        <time>2017-04-04T13:15:59Z</time>
      </trkpt>
      <trkpt lat="43.55878" lon="6.64681">
        <ele>292.38</ele>
        <time>2017-04-04T13:16:25Z</time>
      </trkpt>
      <trkpt lat="43.55878" lon="6.64681">
        <ele>305.84</ele>
        <time>2017-04-04T13:16:26Z</time>
      </trkpt>
      <trkpt lat="43.55878" lon="6.64681">
        <ele>299.11</ele>
        <time>2017-04-04T13:16:27Z</time>
      </trkpt>
      <trkpt lat="43.55878" lon="6.64681">
        <ele>299.59</ele>
        <time>2017-04-04T13:16:44Z</time>
      </trkpt>
      <trkpt lat="43.55878" lon="6.64681">
        <ele>299.11</ele>
        <time>2017-04-04T13:17:05Z</time>
      </trkpt>
      <trkpt lat="43.55878" lon="6.64681">
        <ele>298.63</ele>
        <time>2017-04-04T13:17:26Z</time>
      </trkpt>
      <trkpt lat="43.55878" lon="6.64682">
        <ele>298.63</ele>
        <time>2017-04-04T13:17:59Z</time>
      </trkpt>
      <trkpt lat="43.55878" lon="6.64682">
        <ele>298.63</ele>
        <time>2017-04-04T13:18:30Z</time>
      </trkpt>
      <trkpt lat="43.55878" lon="6.64682">
        <ele>298.63</ele>
        <time>2017-04-04T13:18:52Z</time>
      </trkpt>
      <trkpt lat="43.55878" lon="6.64682">
        <ele>298.63</ele>
        <time>2017-04-04T13:19:18Z</time>
      </trkpt>
      <trkpt lat="43.55878" lon="6.64682">
        <ele>298.63</ele>
        <time>2017-04-04T13:19:31Z</time>
      </trkpt>
      <trkpt lat="43.55878" lon="6.64682">
        <ele>298.63</ele>
        <time>2017-04-04T13:19:44Z</time>
      </trkpt>
      <trkpt lat="43.55878" lon="6.64683">
        <ele>298.63</ele>
        <time>2017-04-04T13:19:59Z</time>
      </trkpt>
      <trkpt lat="43.55883" lon="6.64678">
        <ele>298.63</ele>
        <time>2017-04-04T13:20:10Z</time>
      </trkpt>
      <trkpt lat="43.55887" lon="6.64671">
        <ele>298.63</ele>
        <time>2017-04-04T13:20:19Z</time>
      </trkpt>
      <trkpt lat="43.5589" lon="6.64665">
        <ele>298.63</ele>
        <time>2017-04-04T13:20:24Z</time>
      </trkpt>
      <trkpt lat="43.55895" lon="6.6466">
        <ele>298.63</ele>
        <time>2017-04-04T13:20:31Z</time>
      </trkpt>
      <trkpt lat="43.55898" lon="6.64657">
        <ele>298.63</ele>
        <time>2017-04-04T13:20:34Z</time>
      </trkpt>
      <trkpt lat="43.55906" lon="6.64645">
        <ele>298.63</ele>
        <time>2017-04-04T13:20:45Z</time>
      </trkpt>
      <trkpt lat="43.55915" lon="6.64629">
        <ele>299.11</ele>
        <time>2017-04-04T13:20:55Z</time>
      </trkpt>
      <trkpt lat="43.55917" lon="6.64625">
        <ele>299.11</ele>
        <time>2017-04-04T13:20:58Z</time>
      </trkpt>
      <trkpt lat="43.55926" lon="6.64606">
        <ele>300.07</ele>
        <time>2017-04-04T13:21:11Z</time>
      </trkpt>
      <trkpt lat="43.55931" lon="6.64596">
        <ele>301.03</ele>
        <time>2017-04-04T13:21:20Z</time>
      </trkpt>
      <trkpt lat="43.55937" lon="6.64583">
        <ele>301.99</ele>
        <time>2017-04-04T13:21:29Z</time>
      </trkpt>
      <trkpt lat="43.55939" lon="6.64575">
        <ele>302.95</ele>
        <time>2017-04-04T13:21:36Z</time>
      </trkpt>
      <trkpt lat="43.55945" lon="6.64561">
        <ele>303.43</ele>
        <time>2017-04-04T13:21:47Z</time>
      </trkpt>
      <trkpt lat="43.55955" lon="6.64549">
        <ele>304.39</ele>
        <time>2017-04-04T13:22:00Z</time>
      </trkpt>
      <trkpt lat="43.55957" lon="6.64545">
        <ele>304.88</ele>
        <time>2017-04-04T13:22:03Z</time>
      </trkpt>
      <trkpt lat="43.55968" lon="6.64537">
        <ele>305.84</ele>
        <time>2017-04-04T13:22:15Z</time>
      </trkpt>
      <trkpt lat="43.55977" lon="6.64529">
        <ele>306.8</ele>
        <time>2017-04-04T13:22:25Z</time>
      </trkpt>
      <trkpt lat="43.55987" lon="6.64521">
        <ele>307.76</ele>
        <time>2017-04-04T13:22:36Z</time>
      </trkpt>
      <trkpt lat="43.55999" lon="6.64513">
        <ele>308.72</ele>
        <time>2017-04-04T13:22:48Z</time>
      </trkpt>
      <trkpt lat="43.56008" lon="6.64508">
        <ele>309.2</ele>
        <time>2017-04-04T13:22:57Z</time>
      </trkpt>
      <trkpt lat="43.56016" lon="6.64503">
        <ele>309.68</ele>
        <time>2017-04-04T13:23:05Z</time>
      </trkpt>
      <trkpt lat="43.56022" lon="6.64495">
        <ele>310.16</ele>
        <time>2017-04-04T13:23:14Z</time>
      </trkpt>
      <trkpt lat="43.5603" lon="6.64476">
        <ele>311.6</ele>
        <time>2017-04-04T13:23:27Z</time>
      </trkpt>
      <trkpt lat="43.56034" lon="6.64469">
        <ele>312.09</ele>
        <time>2017-04-04T13:23:32Z</time>
      </trkpt>
      <trkpt lat="43.56037" lon="6.6446">
        <ele>312.57</ele>
        <time>2017-04-04T13:23:39Z</time>
      </trkpt>
      <trkpt lat="43.56042" lon="6.64449">
        <ele>313.53</ele>
        <time>2017-04-04T13:23:49Z</time>
      </trkpt>
      <trkpt lat="43.56044" lon="6.64448">
        <ele>314.01</ele>
        <time>2017-04-04T13:23:51Z</time>
      </trkpt>
      <trkpt lat="43.56048" lon="6.64448">
        <ele>314.49</ele>
        <time>2017-04-04T13:23:56Z</time>
      </trkpt>
      <trkpt lat="43.56053" lon="6.64458">
        <ele>315.45</ele>
        <time>2017-04-04T13:24:06Z</time>
      </trkpt>
      <trkpt lat="43.56056" lon="6.64463">
        <ele>315.45</ele>
        <time>2017-04-04T13:24:15Z</time>
      </trkpt>
      <trkpt lat="43.56058" lon="6.64462">
        <ele>315.93</ele>
        <time>2017-04-04T13:24:26Z</time>
      </trkpt>
      <trkpt lat="43.56058" lon="6.64463">
        <ele>315.45</ele>
        <time>2017-04-04T13:24:40Z</time>
      </trkpt>
      <trkpt lat="43.56058" lon="6.64463">
        <ele>315.45</ele>
        <time>2017-04-04T13:24:55Z</time>
      </trkpt>
      <trkpt lat="43.56059" lon="6.64466">
        <ele>315.45</ele>
        <time>2017-04-04T13:25:10Z</time>
      </trkpt>
      <trkpt lat="43.56059" lon="6.64469">
        <ele>315.93</ele>
        <time>2017-04-04T13:25:20Z</time>
      </trkpt>
      <trkpt lat="43.56058" lon="6.64471">
        <ele>315.93</ele>
        <time>2017-04-04T13:25:22Z</time>
      </trkpt>
      <trkpt lat="43.56059" lon="6.64484">
        <ele>316.41</ele>
        <time>2017-04-04T13:25:32Z</time>
      </trkpt>
      <trkpt lat="43.5606" lon="6.64492">
        <ele>316.41</ele>
        <time>2017-04-04T13:25:41Z</time>
      </trkpt>
      <trkpt lat="43.5606" lon="6.64489">
        <ele>316.89</ele>
        <time>2017-04-04T13:25:48Z</time>
      </trkpt>
      <trkpt lat="43.5606" lon="6.64494">
        <ele>316.89</ele>
        <time>2017-04-04T13:25:57Z</time>
      </trkpt>
      <trkpt lat="43.5606" lon="6.64494">
        <ele>316.89</ele>
        <time>2017-04-04T13:26:07Z</time>
      </trkpt>
      <trkpt lat="43.5606" lon="6.64494">
        <ele>316.89</ele>
        <time>2017-04-04T13:26:08Z</time>
      </trkpt>
      <trkpt lat="43.56058" lon="6.64483">
        <ele>316.41</ele>
        <time>2017-04-04T13:26:16Z</time>
      </trkpt>
      <trkpt lat="43.56058" lon="6.64484">
        <ele>316.41</ele>
        <time>2017-04-04T13:26:26Z</time>
      </trkpt>
      <trkpt lat="43.56058" lon="6.64488">
        <ele>315.93</ele>
        <time>2017-04-04T13:26:35Z</time>
      </trkpt>
      <trkpt lat="43.56058" lon="6.64488">
        <ele>312.57</ele>
        <time>2017-04-04T13:26:36Z</time>
      </trkpt>
      <trkpt lat="43.56058" lon="6.64488">
        <ele>318.33</ele>
        <time>2017-04-04T13:26:37Z</time>
      </trkpt>
      <trkpt lat="43.56059" lon="6.64488">
        <ele>316.89</ele>
        <time>2017-04-04T13:26:47Z</time>
      </trkpt>
      <trkpt lat="43.56061" lon="6.64487">
        <ele>316.89</ele>
        <time>2017-04-04T13:27:02Z</time>
      </trkpt>
      <trkpt lat="43.56061" lon="6.64487">
        <ele>316.89</ele>
        <time>2017-04-04T13:27:17Z</time>
      </trkpt>
      <trkpt lat="43.56061" lon="6.64487">
        <ele>316.89</ele>
        <time>2017-04-04T13:27:34Z</time>
      </trkpt>
      <trkpt lat="43.56061" lon="6.64486">
        <ele>315.93</ele>
        <time>2017-04-04T13:27:56Z</time>
      </trkpt>
      <trkpt lat="43.56061" lon="6.64486">
        <ele>316.41</ele>
        <time>2017-04-04T13:28:18Z</time>
      </trkpt>
      <trkpt lat="43.56062" lon="6.64489">
        <ele>316.89</ele>
        <time>2017-04-04T13:28:30Z</time>
      </trkpt>
      <trkpt lat="43.56061" lon="6.64489">
        <ele>316.89</ele>
        <time>2017-04-04T13:28:40Z</time>
      </trkpt>
      <trkpt lat="43.56061" lon="6.6449">
        <ele>316.89</ele>
        <time>2017-04-04T13:28:57Z</time>
      </trkpt>
      <trkpt lat="43.5606" lon="6.645">
        <ele>317.37</ele>
        <time>2017-04-04T13:29:08Z</time>
      </trkpt>
      <trkpt lat="43.5606" lon="6.64507">
        <ele>318.81</ele>
        <time>2017-04-04T13:29:17Z</time>
      </trkpt>
      <trkpt lat="43.5606" lon="6.64512">
        <ele>319.3</ele>
        <time>2017-04-04T13:29:27Z</time>
      </trkpt>
      <trkpt lat="43.5606" lon="6.64519">
        <ele>319.78</ele>
        <time>2017-04-04T13:29:36Z</time>
      </trkpt>
      <trkpt lat="43.5606" lon="6.64521">
        <ele>319.78</ele>
        <time>2017-04-04T13:29:47Z</time>
      </trkpt>
      <trkpt lat="43.5606" lon="6.64527">
        <ele>320.26</ele>
        <time>2017-04-04T13:29:58Z</time>
      </trkpt>
      <trkpt lat="43.5606" lon="6.64528">
        <ele>319.78</ele>
        <time>2017-04-04T13:30:22Z</time>
      </trkpt>
      <trkpt lat="43.5606" lon="6.64528">
        <ele>320.26</ele>
        <time>2017-04-04T13:30:36Z</time>
      </trkpt>
      <trkpt lat="43.56061" lon="6.64535">
        <ele>320.26</ele>
        <time>2017-04-04T13:30:47Z</time>
      </trkpt>
      <trkpt lat="43.5606" lon="6.64535">
        <ele>320.74</ele>
        <time>2017-04-04T13:30:54Z</time>
      </trkpt>
      <trkpt lat="43.56061" lon="6.64538">
        <ele>319.78</ele>
        <time>2017-04-04T13:31:04Z</time>
      </trkpt>
      <trkpt lat="43.56061" lon="6.6454">
        <ele>320.74</ele>
        <time>2017-04-04T13:31:11Z</time>
      </trkpt>
      <trkpt lat="43.56061" lon="6.64539">
        <ele>320.74</ele>
        <time>2017-04-04T13:31:27Z</time>
      </trkpt>
      <trkpt lat="43.56062" lon="6.6454">
        <ele>320.26</ele>
        <time>2017-04-04T13:31:39Z</time>
      </trkpt>
      <trkpt lat="43.56062" lon="6.6454">
        <ele>320.74</ele>
        <time>2017-04-04T13:31:53Z</time>
      </trkpt>
      <trkpt lat="43.56062" lon="6.6454">
        <ele>320.74</ele>
        <time>2017-04-04T13:32:06Z</time>
      </trkpt>
      <trkpt lat="43.56063" lon="6.6454">
        <ele>320.74</ele>
        <time>2017-04-04T13:32:20Z</time>
      </trkpt>
      <trkpt lat="43.56062" lon="6.64538">
        <ele>320.26</ele>
        <time>2017-04-04T13:32:31Z</time>
      </trkpt>
      <trkpt lat="43.56061" lon="6.64536">
        <ele>320.26</ele>
        <time>2017-04-04T13:32:46Z</time>
      </trkpt>
      <trkpt lat="43.56061" lon="6.64532">
        <ele>320.26</ele>
        <time>2017-04-04T13:32:50Z</time>
      </trkpt>
      <trkpt lat="43.56061" lon="6.64522">
        <ele>319.3</ele>
        <time>2017-04-04T13:32:59Z</time>
      </trkpt>
      <trkpt lat="43.56063" lon="6.64511">
        <ele>318.81</ele>
        <time>2017-04-04T13:33:09Z</time>
      </trkpt>
      <trkpt lat="43.56064" lon="6.6451">
        <ele>318.33</ele>
        <time>2017-04-04T13:33:12Z</time>
      </trkpt>
      <trkpt lat="43.56062" lon="6.64501">
        <ele>317.37</ele>
        <time>2017-04-04T13:33:20Z</time>
      </trkpt>
      <trkpt lat="43.56058" lon="6.64496">
        <ele>316.89</ele>
        <time>2017-04-04T13:33:31Z</time>
      </trkpt>
      <trkpt lat="43.56058" lon="6.64496">
        <ele>316.89</ele>
        <time>2017-04-04T13:33:48Z</time>
      </trkpt>
      <trkpt lat="43.56058" lon="6.64497">
        <ele>316.89</ele>
        <time>2017-04-04T13:34:04Z</time>
      </trkpt>
      <trkpt lat="43.56061" lon="6.64497">
        <ele>316.89</ele>
        <time>2017-04-04T13:34:13Z</time>
      </trkpt>
      <trkpt lat="43.56062" lon="6.64499">
        <ele>316.89</ele>
        <time>2017-04-04T13:34:25Z</time>
      </trkpt>
      <trkpt lat="43.56062" lon="6.645">
        <ele>316.89</ele>
        <time>2017-04-04T13:34:41Z</time>
      </trkpt>
      <trkpt lat="43.56062" lon="6.64501">
        <ele>316.41</ele>
        <time>2017-04-04T13:34:54Z</time>
      </trkpt>
      <trkpt lat="43.56064" lon="6.645">
        <ele>316.89</ele>
        <time>2017-04-04T13:35:06Z</time>
      </trkpt>
      <trkpt lat="43.56064" lon="6.645">
        <ele>316.89</ele>
        <time>2017-04-04T13:35:18Z</time>
      </trkpt>
      <trkpt lat="43.56065" lon="6.645">
        <ele>316.89</ele>
        <time>2017-04-04T13:35:33Z</time>
      </trkpt>
      <trkpt lat="43.56065" lon="6.64499">
        <ele>316.41</ele>
        <time>2017-04-04T13:35:44Z</time>
      </trkpt>
      <trkpt lat="43.56065" lon="6.645">
        <ele>316.89</ele>
        <time>2017-04-04T13:36:05Z</time>
      </trkpt>
      <trkpt lat="43.56065" lon="6.645">
        <ele>316.41</ele>
        <time>2017-04-04T13:36:25Z</time>
      </trkpt>
      <trkpt lat="43.56066" lon="6.64498">
        <ele>316.89</ele>
        <time>2017-04-04T13:36:44Z</time>
      </trkpt>
      <trkpt lat="43.56065" lon="6.64498">
        <ele>316.89</ele>
        <time>2017-04-04T13:36:59Z</time>
      </trkpt>
      <trkpt lat="43.56065" lon="6.64497">
        <ele>316.41</ele>
        <time>2017-04-04T13:37:20Z</time>
      </trkpt>
      <trkpt lat="43.56065" lon="6.64497">
        <ele>316.41</ele>
        <time>2017-04-04T13:37:44Z</time>
      </trkpt>
      <trkpt lat="43.56064" lon="6.64497">
        <ele>316.41</ele>
        <time>2017-04-04T13:38:06Z</time>
      </trkpt>
      <trkpt lat="43.56065" lon="6.64496">
        <ele>316.41</ele>
        <time>2017-04-04T13:38:27Z</time>
      </trkpt>
      <trkpt lat="43.56065" lon="6.64496">
        <ele>316.41</ele>
        <time>2017-04-04T13:38:48Z</time>
      </trkpt>
      <trkpt lat="43.56065" lon="6.64495">
        <ele>316.41</ele>
        <time>2017-04-04T13:39:15Z</time>
      </trkpt>
      <trkpt lat="43.56066" lon="6.64494">
        <ele>316.41</ele>
        <time>2017-04-04T13:39:42Z</time>
      </trkpt>
      <trkpt lat="43.56064" lon="6.64492">
        <ele>316.41</ele>
        <time>2017-04-04T13:39:53Z</time>
      </trkpt>
      <trkpt lat="43.56064" lon="6.64489">
        <ele>316.41</ele>
        <time>2017-04-04T13:40:04Z</time>
      </trkpt>
      <trkpt lat="43.56064" lon="6.64488">
        <ele>315.93</ele>
        <time>2017-04-04T13:40:17Z</time>
      </trkpt>
      <trkpt lat="43.56064" lon="6.64487">
        <ele>315.45</ele>
        <time>2017-04-04T13:40:34Z</time>
      </trkpt>
      <trkpt lat="43.56062" lon="6.64487">
        <ele>315.93</ele>
        <time>2017-04-04T13:40:50Z</time>
      </trkpt>
      <trkpt lat="43.56059" lon="6.64493">
        <ele>316.41</ele>
        <time>2017-04-04T13:41:01Z</time>
      </trkpt>
      <trkpt lat="43.56059" lon="6.64492">
        <ele>316.41</ele>
        <time>2017-04-04T13:41:23Z</time>
      </trkpt>
      <trkpt lat="43.56059" lon="6.64492">
        <ele>316.41</ele>
        <time>2017-04-04T13:41:24Z</time>
      </trkpt>
      <trkpt lat="43.56061" lon="6.64495">
        <ele>316.41</ele>
        <time>2017-04-04T13:41:27Z</time>
      </trkpt>
      <trkpt lat="43.56064" lon="6.64498">
        <ele>315.93</ele>
        <time>2017-04-04T13:41:38Z</time>
      </trkpt>
      <trkpt lat="43.56063" lon="6.64493">
        <ele>316.41</ele>
        <time>2017-04-04T13:41:54Z</time>
      </trkpt>
      <trkpt lat="43.56061" lon="6.64492">
        <ele>315.93</ele>
        <time>2017-04-04T13:42:05Z</time>
      </trkpt>
      <trkpt lat="43.5606" lon="6.6449">
        <ele>316.41</ele>
        <time>2017-04-04T13:42:17Z</time>
      </trkpt>
      <trkpt lat="43.5606" lon="6.64489">
        <ele>316.41</ele>
        <time>2017-04-04T13:42:28Z</time>
      </trkpt>
      <trkpt lat="43.56059" lon="6.64492">
        <ele>316.41</ele>
        <time>2017-04-04T13:42:37Z</time>
      </trkpt>
      <trkpt lat="43.5606" lon="6.64487">
        <ele>316.41</ele>
        <time>2017-04-04T13:42:50Z</time>
      </trkpt>
      <trkpt lat="43.5606" lon="6.64488">
        <ele>316.41</ele>
        <time>2017-04-04T13:43:00Z</time>
      </trkpt>
      <trkpt lat="43.5606" lon="6.64489">
        <ele>316.41</ele>
        <time>2017-04-04T13:43:14Z</time>
      </trkpt>
      <trkpt lat="43.56061" lon="6.64485">
        <ele>316.41</ele>
        <time>2017-04-04T13:43:22Z</time>
      </trkpt>
      <trkpt lat="43.56062" lon="6.64485">
        <ele>316.41</ele>
        <time>2017-04-04T13:43:23Z</time>
      </trkpt>
      <trkpt lat="43.56061" lon="6.64481">
        <ele>315.93</ele>
        <time>2017-04-04T13:43:33Z</time>
      </trkpt>
      <trkpt lat="43.56062" lon="6.64478">
        <ele>315.93</ele>
        <time>2017-04-04T13:43:43Z</time>
      </trkpt>
      <trkpt lat="43.56059" lon="6.64467">
        <ele>315.45</ele>
        <time>2017-04-04T13:43:53Z</time>
      </trkpt>
      <trkpt lat="43.5606" lon="6.64462">
        <ele>314.97</ele>
        <time>2017-04-04T13:43:58Z</time>
      </trkpt>
      <trkpt lat="43.56057" lon="6.64453">
        <ele>314.49</ele>
        <time>2017-04-04T13:44:09Z</time>
      </trkpt>
      <trkpt lat="43.56052" lon="6.64449">
        <ele>314.01</ele>
        <time>2017-04-04T13:44:19Z</time>
      </trkpt>
      <trkpt lat="43.5605" lon="6.64448">
        <ele>314.01</ele>
        <time>2017-04-04T13:44:27Z</time>
      </trkpt>
      <trkpt lat="43.56045" lon="6.64446">
        <ele>313.53</ele>
        <time>2017-04-04T13:44:31Z</time>
      </trkpt>
      <trkpt lat="43.56042" lon="6.64446">
        <ele>313.05</ele>
        <time>2017-04-04T13:44:33Z</time>
      </trkpt>
      <trkpt lat="43.56036" lon="6.64453">
        <ele>312.57</ele>
        <time>2017-04-04T13:44:42Z</time>
      </trkpt>
      <trkpt lat="43.56032" lon="6.64459">
        <ele>311.6</ele>
        <time>2017-04-04T13:44:48Z</time>
      </trkpt>
      <trkpt lat="43.56027" lon="6.64462">
        <ele>309.68</ele>
        <time>2017-04-04T13:44:58Z</time>
      </trkpt>
      <trkpt lat="43.56024" lon="6.64463">
        <ele>308.72</ele>
        <time>2017-04-04T13:45:01Z</time>
      </trkpt>
      <trkpt lat="43.56023" lon="6.64459">
        <ele>307.76</ele>
        <time>2017-04-04T13:45:05Z</time>
      </trkpt>
      <trkpt lat="43.56021" lon="6.64458">
        <ele>307.28</ele>
        <time>2017-04-04T13:45:15Z</time>
      </trkpt>
      <trkpt lat="43.56022" lon="6.64462">
        <ele>307.28</ele>
        <time>2017-04-04T13:45:25Z</time>
      </trkpt>
      <trkpt lat="43.56023" lon="6.64464">
        <ele>307.76</ele>
        <time>2017-04-04T13:45:40Z</time>
      </trkpt>
      <trkpt lat="43.56023" lon="6.64464">
        <ele>308.24</ele>
        <time>2017-04-04T13:45:43Z</time>
      </trkpt>
      <trkpt lat="43.56019" lon="6.6447">
        <ele>307.76</ele>
        <time>2017-04-04T13:45:50Z</time>
      </trkpt>
      <trkpt lat="43.56019" lon="6.64475">
        <ele>308.24</ele>
        <time>2017-04-04T13:46:00Z</time>
      </trkpt>
      <trkpt lat="43.56019" lon="6.64473">
        <ele>308.24</ele>
        <time>2017-04-04T13:46:11Z</time>
      </trkpt>
      <trkpt lat="43.56019" lon="6.64473">
        <ele>307.76</ele>
        <time>2017-04-04T13:46:25Z</time>
      </trkpt>
      <trkpt lat="43.5602" lon="6.64472">
        <ele>307.76</ele>
        <time>2017-04-04T13:46:37Z</time>
      </trkpt>
      <trkpt lat="43.56021" lon="6.64465">
        <ele>308.24</ele>
        <time>2017-04-04T13:46:47Z</time>
      </trkpt>
      <trkpt lat="43.56021" lon="6.64464">
        <ele>307.76</ele>
        <time>2017-04-04T13:47:06Z</time>
      </trkpt>
      <trkpt lat="43.56023" lon="6.64451">
        <ele>307.28</ele>
        <time>2017-04-04T13:47:18Z</time>
      </trkpt>
      <trkpt lat="43.56024" lon="6.6445">
        <ele>307.28</ele>
        <time>2017-04-04T13:47:19Z</time>
      </trkpt>
      <trkpt lat="43.56028" lon="6.64436">
        <ele>306.8</ele>
        <time>2017-04-04T13:47:29Z</time>
      </trkpt>
      <trkpt lat="43.5603" lon="6.64425">
        <ele>306.32</ele>
        <time>2017-04-04T13:47:37Z</time>
      </trkpt>
      <trkpt lat="43.56031" lon="6.64424">
        <ele>306.32</ele>
        <time>2017-04-04T13:47:38Z</time>
      </trkpt>
      <trkpt lat="43.56032" lon="6.64421">
        <ele>306.32</ele>
        <time>2017-04-04T13:47:40Z</time>
      </trkpt>
      <trkpt lat="43.56036" lon="6.64409">
        <ele>306.32</ele>
        <time>2017-04-04T13:47:49Z</time>
      </trkpt>
      <trkpt lat="43.56038" lon="6.64402">
        <ele>305.84</ele>
        <time>2017-04-04T13:47:54Z</time>
      </trkpt>
      <trkpt lat="43.56044" lon="6.64386">
        <ele>305.36</ele>
        <time>2017-04-04T13:48:06Z</time>
      </trkpt>
      <trkpt lat="43.56051" lon="6.64378">
        <ele>304.39</ele>
        <time>2017-04-04T13:48:15Z</time>
      </trkpt>
      <trkpt lat="43.56054" lon="6.64376">
        <ele>304.39</ele>
        <time>2017-04-04T13:48:19Z</time>
      </trkpt>
      <trkpt lat="43.56058" lon="6.64375">
        <ele>303.91</ele>
        <time>2017-04-04T13:48:24Z</time>
      </trkpt>
      <trkpt lat="43.56067" lon="6.64378">
        <ele>303.43</ele>
        <time>2017-04-04T13:48:34Z</time>
      </trkpt>
      <trkpt lat="43.56071" lon="6.64384">
        <ele>302.95</ele>
        <time>2017-04-04T13:48:43Z</time>
      </trkpt>
      <trkpt lat="43.56073" lon="6.64383">
        <ele>302.95</ele>
        <time>2017-04-04T13:48:52Z</time>
      </trkpt>
      <trkpt lat="43.56073" lon="6.64385">
        <ele>302.95</ele>
        <time>2017-04-04T13:49:05Z</time>
      </trkpt>
      <trkpt lat="43.56074" lon="6.64393">
        <ele>302.47</ele>
        <time>2017-04-04T13:49:12Z</time>
      </trkpt>
      <trkpt lat="43.56076" lon="6.64401">
        <ele>301.99</ele>
        <time>2017-04-04T13:49:17Z</time>
      </trkpt>
      <trkpt lat="43.56079" lon="6.64415">
        <ele>301.03</ele>
        <time>2017-04-04T13:49:28Z</time>
      </trkpt>
      <trkpt lat="43.5608" lon="6.64422">
        <ele>301.03</ele>
        <time>2017-04-04T13:49:37Z</time>
      </trkpt>
      <trkpt lat="43.56081" lon="6.64421">
        <ele>301.51</ele>
        <time>2017-04-04T13:49:52Z</time>
      </trkpt>
      <trkpt lat="43.56081" lon="6.64422">
        <ele>301.03</ele>
        <time>2017-04-04T13:50:18Z</time>
      </trkpt>
      <trkpt lat="43.56081" lon="6.64425">
        <ele>301.03</ele>
        <time>2017-04-04T13:50:35Z</time>
      </trkpt>
      <trkpt lat="43.56084" lon="6.64438">
        <ele>300.07</ele>
        <time>2017-04-04T13:50:46Z</time>
      </trkpt>
      <trkpt lat="43.56085" lon="6.64444">
        <ele>299.59</ele>
        <time>2017-04-04T13:50:52Z</time>
      </trkpt>
      <trkpt lat="43.56087" lon="6.64455">
        <ele>299.11</ele>
        <time>2017-04-04T13:51:00Z</time>
      </trkpt>
      <trkpt lat="43.56094" lon="6.64471">
        <ele>298.63</ele>
        <time>2017-04-04T13:51:12Z</time>
      </trkpt>
      <trkpt lat="43.56096" lon="6.64475">
        <ele>298.15</ele>
        <time>2017-04-04T13:51:16Z</time>
      </trkpt>
      <trkpt lat="43.56104" lon="6.64485">
        <ele>297.18</ele>
        <time>2017-04-04T13:51:25Z</time>
      </trkpt>
      <trkpt lat="43.56108" lon="6.64494">
        <ele>296.7</ele>
        <time>2017-04-04T13:51:34Z</time>
      </trkpt>
      <trkpt lat="43.56112" lon="6.64498">
        <ele>296.7</ele>
        <time>2017-04-04T13:51:38Z</time>
      </trkpt>
      <trkpt lat="43.56112" lon="6.64502">
        <ele>296.22</ele>
        <time>2017-04-04T13:51:41Z</time>
      </trkpt>
      <trkpt lat="43.56117" lon="6.64512">
        <ele>295.74</ele>
        <time>2017-04-04T13:51:49Z</time>
      </trkpt>
      <trkpt lat="43.56119" lon="6.64516">
        <ele>295.74</ele>
        <time>2017-04-04T13:51:58Z</time>
      </trkpt>
      <trkpt lat="43.5612" lon="6.64516">
        <ele>295.74</ele>
        <time>2017-04-04T13:52:11Z</time>
      </trkpt>
      <trkpt lat="43.56121" lon="6.64518">
        <ele>295.74</ele>
        <time>2017-04-04T13:52:30Z</time>
      </trkpt>
      <trkpt lat="43.56124" lon="6.64519">
        <ele>295.74</ele>
        <time>2017-04-04T13:52:49Z</time>
      </trkpt>
      <trkpt lat="43.56124" lon="6.64518">
        <ele>295.74</ele>
        <time>2017-04-04T13:53:10Z</time>
      </trkpt>
      <trkpt lat="43.56126" lon="6.64521">
        <ele>295.26</ele>
        <time>2017-04-04T13:53:20Z</time>
      </trkpt>
      <trkpt lat="43.56127" lon="6.64526">
        <ele>294.78</ele>
        <time>2017-04-04T13:53:28Z</time>
      </trkpt>
      <trkpt lat="43.56128" lon="6.64529">
        <ele>294.78</ele>
        <time>2017-04-04T13:53:30Z</time>
      </trkpt>
      <trkpt lat="43.5613" lon="6.64538">
        <ele>294.3</ele>
        <time>2017-04-04T13:53:41Z</time>
      </trkpt>
      <trkpt lat="43.56133" lon="6.64551">
        <ele>293.34</ele>
        <time>2017-04-04T13:53:51Z</time>
      </trkpt>
      <trkpt lat="43.56135" lon="6.6456">
        <ele>292.86</ele>
        <time>2017-04-04T13:53:59Z</time>
      </trkpt>
      <trkpt lat="43.5614" lon="6.64574">
        <ele>292.38</ele>
        <time>2017-04-04T13:54:10Z</time>
      </trkpt>
      <trkpt lat="43.5614" lon="6.64588">
        <ele>291.42</ele>
        <time>2017-04-04T13:54:20Z</time>
      </trkpt>
      <trkpt lat="43.56145" lon="6.64605">
        <ele>290.46</ele>
        <time>2017-04-04T13:54:32Z</time>
      </trkpt>
      <trkpt lat="43.56147" lon="6.64611">
        <ele>290.46</ele>
        <time>2017-04-04T13:54:35Z</time>
      </trkpt>
      <trkpt lat="43.56146" lon="6.64629">
        <ele>289.49</ele>
        <time>2017-04-04T13:54:47Z</time>
      </trkpt>
      <trkpt lat="43.56146" lon="6.64643">
        <ele>288.53</ele>
        <time>2017-04-04T13:54:57Z</time>
      </trkpt>
      <trkpt lat="43.56142" lon="6.64653">
        <ele>288.53</ele>
        <time>2017-04-04T13:55:06Z</time>
      </trkpt>
      <trkpt lat="43.56141" lon="6.64655">
        <ele>288.53</ele>
        <time>2017-04-04T13:55:07Z</time>
      </trkpt>
      <trkpt lat="43.56138" lon="6.64659">
        <ele>288.05</ele>
        <time>2017-04-04T13:55:12Z</time>
      </trkpt>
      <trkpt lat="43.56137" lon="6.64668">
        <ele>287.57</ele>
        <time>2017-04-04T13:55:21Z</time>
      </trkpt>
      <trkpt lat="43.56131" lon="6.64682">
        <ele>286.61</ele>
        <time>2017-04-04T13:55:33Z</time>
      </trkpt>
      <trkpt lat="43.5613" lon="6.64684">
        <ele>286.61</ele>
        <time>2017-04-04T13:55:35Z</time>
      </trkpt>
      <trkpt lat="43.56128" lon="6.64687">
        <ele>286.13</ele>
        <time>2017-04-04T13:55:38Z</time>
      </trkpt>
      <trkpt lat="43.56124" lon="6.64696">
        <ele>285.65</ele>
        <time>2017-04-04T13:55:47Z</time>
      </trkpt>
      <trkpt lat="43.56121" lon="6.64701">
        <ele>285.65</ele>
        <time>2017-04-04T13:55:51Z</time>
      </trkpt>
      <trkpt lat="43.56114" lon="6.64713">
        <ele>284.69</ele>
        <time>2017-04-04T13:56:02Z</time>
      </trkpt>
      <trkpt lat="43.56111" lon="6.64728">
        <ele>283.73</ele>
        <time>2017-04-04T13:56:13Z</time>
      </trkpt>
      <trkpt lat="43.56105" lon="6.64743">
        <ele>283.25</ele>
        <time>2017-04-04T13:56:24Z</time>
      </trkpt>
      <trkpt lat="43.56099" lon="6.64754">
        <ele>282.28</ele>
        <time>2017-04-04T13:56:35Z</time>
      </trkpt>
      <trkpt lat="43.56099" lon="6.64755">
        <ele>282.28</ele>
        <time>2017-04-04T13:56:36Z</time>
      </trkpt>
      <trkpt lat="43.56096" lon="6.64765">
        <ele>281.8</ele>
        <time>2017-04-04T13:56:45Z</time>
      </trkpt>
      <trkpt lat="43.56089" lon="6.64782">
        <ele>280.84</ele>
        <time>2017-04-04T13:56:55Z</time>
      </trkpt>
      <trkpt lat="43.56085" lon="6.64799">
        <ele>280.36</ele>
        <time>2017-04-04T13:57:07Z</time>
      </trkpt>
      <trkpt lat="43.56081" lon="6.64812">
        <ele>279.88</ele>
        <time>2017-04-04T13:57:17Z</time>
      </trkpt>
      <trkpt lat="43.56078" lon="6.64824">
        <ele>278.92</ele>
        <time>2017-04-04T13:57:28Z</time>
      </trkpt>
      <trkpt lat="43.56076" lon="6.64838">
        <ele>278.44</ele>
        <time>2017-04-04T13:57:37Z</time>
      </trkpt>
      <trkpt lat="43.56071" lon="6.64853">
        <ele>277.48</ele>
        <time>2017-04-04T13:57:48Z</time>
      </trkpt>
      <trkpt lat="43.56069" lon="6.6487">
        <ele>276.52</ele>
        <time>2017-04-04T13:58:00Z</time>
      </trkpt>
      <trkpt lat="43.56066" lon="6.64883">
        <ele>276.52</ele>
        <time>2017-04-04T13:58:08Z</time>
      </trkpt>
      <trkpt lat="43.56063" lon="6.64897">
        <ele>276.04</ele>
        <time>2017-04-04T13:58:18Z</time>
      </trkpt>
      <trkpt lat="43.56057" lon="6.64909">
        <ele>275.07</ele>
        <time>2017-04-04T13:58:29Z</time>
      </trkpt>
      <trkpt lat="43.56052" lon="6.64919">
        <ele>274.11</ele>
        <time>2017-04-04T13:58:36Z</time>
      </trkpt>
      <trkpt lat="43.56048" lon="6.64934">
        <ele>274.11</ele>
        <time>2017-04-04T13:58:46Z</time>
      </trkpt>
      <trkpt lat="43.56045" lon="6.6494">
        <ele>273.63</ele>
        <time>2017-04-04T13:58:51Z</time>
      </trkpt>
      <trkpt lat="43.56043" lon="6.64954">
        <ele>272.67</ele>
        <time>2017-04-04T13:59:02Z</time>
      </trkpt>
      <trkpt lat="43.56039" lon="6.64967">
        <ele>272.19</ele>
        <time>2017-04-04T13:59:12Z</time>
      </trkpt>
      <trkpt lat="43.56037" lon="6.64978">
        <ele>271.71</ele>
        <time>2017-04-04T13:59:21Z</time>
      </trkpt>
      <trkpt lat="43.56032" lon="6.64992">
        <ele>270.75</ele>
        <time>2017-04-04T13:59:32Z</time>
      </trkpt>
      <trkpt lat="43.56028" lon="6.65003">
        <ele>270.27</ele>
        <time>2017-04-04T13:59:42Z</time>
      </trkpt>
      <trkpt lat="43.56024" lon="6.65019">
        <ele>269.31</ele>
        <time>2017-04-04T13:59:53Z</time>
      </trkpt>
      <trkpt lat="43.56018" lon="6.65037">
        <ele>268.83</ele>
        <time>2017-04-04T14:00:04Z</time>
      </trkpt>
      <trkpt lat="43.56016" lon="6.65051">
        <ele>267.86</ele>
        <time>2017-04-04T14:00:14Z</time>
      </trkpt>
      <trkpt lat="43.56013" lon="6.65062">
        <ele>267.38</ele>
        <time>2017-04-04T14:00:24Z</time>
      </trkpt>
      <trkpt lat="43.56011" lon="6.65067">
        <ele>267.38</ele>
        <time>2017-04-04T14:00:28Z</time>
      </trkpt>
      <trkpt lat="43.56007" lon="6.65081">
        <ele>266.42</ele>
        <time>2017-04-04T14:00:39Z</time>
      </trkpt>
      <trkpt lat="43.56006" lon="6.65085">
        <ele>265.94</ele>
        <time>2017-04-04T14:00:42Z</time>
      </trkpt>
      <trkpt lat="43.56003" lon="6.65091">
        <ele>265.94</ele>
        <time>2017-04-04T14:00:46Z</time>
      </trkpt>
      <trkpt lat="43.55998" lon="6.65108">
        <ele>264.5</ele>
        <time>2017-04-04T14:00:58Z</time>
      </trkpt>
      <trkpt lat="43.55994" lon="6.65125">
        <ele>264.02</ele>
        <time>2017-04-04T14:01:11Z</time>
      </trkpt>
      <trkpt lat="43.55989" lon="6.65134">
        <ele>263.54</ele>
        <time>2017-04-04T14:01:20Z</time>
      </trkpt>
      <trkpt lat="43.55984" lon="6.65144">
        <ele>263.06</ele>
        <time>2017-04-04T14:01:30Z</time>
      </trkpt>
      <trkpt lat="43.55985" lon="6.65151">
        <ele>262.58</ele>
        <time>2017-04-04T14:01:40Z</time>
      </trkpt>
      <trkpt lat="43.55985" lon="6.65154">
        <ele>263.06</ele>
        <time>2017-04-04T14:01:52Z</time>
      </trkpt>
      <trkpt lat="43.55985" lon="6.65153">
        <ele>263.06</ele>
        <time>2017-04-04T14:02:05Z</time>
      </trkpt>
      <trkpt lat="43.55983" lon="6.65154">
        <ele>262.58</ele>
        <time>2017-04-04T14:02:18Z</time>
      </trkpt>
      <trkpt lat="43.55977" lon="6.65149">
        <ele>261.62</ele>
        <time>2017-04-04T14:02:27Z</time>
      </trkpt>
      <trkpt lat="43.55968" lon="6.65139">
        <ele>260.65</ele>
        <time>2017-04-04T14:02:37Z</time>
      </trkpt>
      <trkpt lat="43.55963" lon="6.65133">
        <ele>260.17</ele>
        <time>2017-04-04T14:02:43Z</time>
      </trkpt>
      <trkpt lat="43.55961" lon="6.65131">
        <ele>260.17</ele>
        <time>2017-04-04T14:02:46Z</time>
      </trkpt>
      <trkpt lat="43.55954" lon="6.65118">
        <ele>258.73</ele>
        <time>2017-04-04T14:02:57Z</time>
      </trkpt>
      <trkpt lat="43.55949" lon="6.6511">
        <ele>258.73</ele>
        <time>2017-04-04T14:03:04Z</time>
      </trkpt>
      <trkpt lat="43.55942" lon="6.65098">
        <ele>257.77</ele>
        <time>2017-04-04T14:03:14Z</time>
      </trkpt>
      <trkpt lat="43.55941" lon="6.65097">
        <ele>257.77</ele>
        <time>2017-04-04T14:03:15Z</time>
      </trkpt>
      <trkpt lat="43.5593" lon="6.65093">
        <ele>257.29</ele>
        <time>2017-04-04T14:03:26Z</time>
      </trkpt>
      <trkpt lat="43.55929" lon="6.65094">
        <ele>257.29</ele>
        <time>2017-04-04T14:03:27Z</time>
      </trkpt>
      <trkpt lat="43.55925" lon="6.65106">
        <ele>256.81</ele>
        <time>2017-04-04T14:03:37Z</time>
      </trkpt>
      <trkpt lat="43.55925" lon="6.65107">
        <ele>256.33</ele>
        <time>2017-04-04T14:03:38Z</time>
      </trkpt>
      <trkpt lat="43.55918" lon="6.65121">
        <ele>254.89</ele>
        <time>2017-04-04T14:03:49Z</time>
      </trkpt>
      <trkpt lat="43.55914" lon="6.65139">
        <ele>254.89</ele>
        <time>2017-04-04T14:04:02Z</time>
      </trkpt>
      <trkpt lat="43.55913" lon="6.65151">
        <ele>253.93</ele>
        <time>2017-04-04T14:04:11Z</time>
      </trkpt>
      <trkpt lat="43.55906" lon="6.65164">
        <ele>252.96</ele>
        <time>2017-04-04T14:04:22Z</time>
      </trkpt>
      <trkpt lat="43.55902" lon="6.65178">
        <ele>252.48</ele>
        <time>2017-04-04T14:04:32Z</time>
      </trkpt>
      <trkpt lat="43.55904" lon="6.65182">
        <ele>252</ele>
        <time>2017-04-04T14:04:35Z</time>
      </trkpt>
      <trkpt lat="43.55903" lon="6.65188">
        <ele>252</ele>
        <time>2017-04-04T14:04:38Z</time>
      </trkpt>
      <trkpt lat="43.55903" lon="6.65196">
        <ele>252</ele>
        <time>2017-04-04T14:04:43Z</time>
      </trkpt>
      <trkpt lat="43.55903" lon="6.65201">
        <ele>252</ele>
        <time>2017-04-04T14:04:46Z</time>
      </trkpt>
      <trkpt lat="43.55904" lon="6.65209">
        <ele>251.04</ele>
        <time>2017-04-04T14:04:53Z</time>
      </trkpt>
      <trkpt lat="43.55902" lon="6.65215">
        <ele>250.56</ele>
        <time>2017-04-04T14:04:57Z</time>
      </trkpt>
      <trkpt lat="43.55904" lon="6.65225">
        <ele>249.6</ele>
        <time>2017-04-04T14:05:05Z</time>
      </trkpt>
      <trkpt lat="43.55904" lon="6.6523">
        <ele>249.6</ele>
        <time>2017-04-04T14:05:08Z</time>
      </trkpt>
      <trkpt lat="43.55907" lon="6.65245">
        <ele>249.12</ele>
        <time>2017-04-04T14:05:18Z</time>
      </trkpt>
      <trkpt lat="43.55907" lon="6.65246">
        <ele>249.12</ele>
        <time>2017-04-04T14:05:19Z</time>
      </trkpt>
      <trkpt lat="43.55909" lon="6.65255">
        <ele>248.64</ele>
        <time>2017-04-04T14:05:26Z</time>
      </trkpt>
      <trkpt lat="43.55907" lon="6.65275">
        <ele>247.68</ele>
        <time>2017-04-04T14:05:36Z</time>
      </trkpt>
      <trkpt lat="43.55907" lon="6.65278">
        <ele>247.68</ele>
        <time>2017-04-04T14:05:38Z</time>
      </trkpt>
      <trkpt lat="43.55907" lon="6.65286">
        <ele>248.16</ele>
        <time>2017-04-04T14:05:43Z</time>
      </trkpt>
      <trkpt lat="43.55906" lon="6.65298">
        <ele>247.2</ele>
        <time>2017-04-04T14:05:52Z</time>
      </trkpt>
      <trkpt lat="43.5591" lon="6.65313">
        <ele>246.23</ele>
        <time>2017-04-04T14:06:02Z</time>
      </trkpt>
      <trkpt lat="43.55911" lon="6.65322">
        <ele>245.75</ele>
        <time>2017-04-04T14:06:10Z</time>
      </trkpt>
      <trkpt lat="43.55912" lon="6.65326">
        <ele>245.75</ele>
        <time>2017-04-04T14:06:13Z</time>
      </trkpt>
      <trkpt lat="43.55908" lon="6.65339">
        <ele>244.79</ele>
        <time>2017-04-04T14:06:23Z</time>
      </trkpt>
      <trkpt lat="43.55908" lon="6.65351">
        <ele>244.31</ele>
        <time>2017-04-04T14:06:34Z</time>
      </trkpt>
      <trkpt lat="43.55909" lon="6.65353">
        <ele>243.83</ele>
        <time>2017-04-04T14:06:36Z</time>
      </trkpt>
      <trkpt lat="43.55906" lon="6.65355">
        <ele>243.83</ele>
        <time>2017-04-04T14:06:39Z</time>
      </trkpt>
      <trkpt lat="43.55903" lon="6.65366">
        <ele>242.87</ele>
        <time>2017-04-04T14:06:50Z</time>
      </trkpt>
      <trkpt lat="43.55899" lon="6.65373">
        <ele>242.39</ele>
        <time>2017-04-04T14:06:56Z</time>
      </trkpt>
      <trkpt lat="43.55898" lon="6.65382">
        <ele>241.91</ele>
        <time>2017-04-04T14:07:04Z</time>
      </trkpt>
      <trkpt lat="43.55895" lon="6.65387">
        <ele>241.91</ele>
        <time>2017-04-04T14:07:07Z</time>
      </trkpt>
      <trkpt lat="43.55893" lon="6.65403">
        <ele>241.43</ele>
        <time>2017-04-04T14:07:17Z</time>
      </trkpt>
      <trkpt lat="43.55895" lon="6.6541">
        <ele>240.95</ele>
        <time>2017-04-04T14:07:27Z</time>
      </trkpt>
      <trkpt lat="43.55893" lon="6.65421">
        <ele>239.99</ele>
        <time>2017-04-04T14:07:35Z</time>
      </trkpt>
      <trkpt lat="43.55886" lon="6.65435">
        <ele>239.51</ele>
        <time>2017-04-04T14:07:47Z</time>
      </trkpt>
      <trkpt lat="43.55887" lon="6.65436">
        <ele>239.51</ele>
        <time>2017-04-04T14:07:56Z</time>
      </trkpt>
      <trkpt lat="43.55887" lon="6.65438">
        <ele>239.99</ele>
        <time>2017-04-04T14:08:16Z</time>
      </trkpt>
      <trkpt lat="43.55887" lon="6.65438">
        <ele>239.51</ele>
        <time>2017-04-04T14:08:35Z</time>
      </trkpt>
      <trkpt lat="43.55889" lon="6.65439">
        <ele>239.02</ele>
        <time>2017-04-04T14:08:39Z</time>
      </trkpt>
      <trkpt lat="43.55907" lon="6.65445">
        <ele>238.54</ele>
        <time>2017-04-04T14:08:50Z</time>
      </trkpt>
      <trkpt lat="43.55915" lon="6.65446">
        <ele>238.06</ele>
        <time>2017-04-04T14:08:56Z</time>
      </trkpt>
      <trkpt lat="43.55933" lon="6.65445">
        <ele>237.58</ele>
        <time>2017-04-04T14:09:05Z</time>
      </trkpt>
      <trkpt lat="43.55939" lon="6.65442">
        <ele>236.62</ele>
        <time>2017-04-04T14:09:13Z</time>
      </trkpt>
      <trkpt lat="43.55947" lon="6.65442">
        <ele>236.14</ele>
        <time>2017-04-04T14:09:22Z</time>
      </trkpt>
      <trkpt lat="43.55953" lon="6.65441">
        <ele>235.66</ele>
        <time>2017-04-04T14:09:30Z</time>
      </trkpt>
      <trkpt lat="43.55962" lon="6.65445">
        <ele>235.66</ele>
        <time>2017-04-04T14:09:39Z</time>
      </trkpt>
      <trkpt lat="43.55972" lon="6.65452">
        <ele>234.7</ele>
        <time>2017-04-04T14:09:48Z</time>
      </trkpt>
      <trkpt lat="43.55982" lon="6.65455">
        <ele>234.22</ele>
        <time>2017-04-04T14:09:56Z</time>
      </trkpt>
      <trkpt lat="43.55998" lon="6.65461">
        <ele>233.26</ele>
        <time>2017-04-04T14:10:08Z</time>
      </trkpt>
      <trkpt lat="43.56003" lon="6.65461">
        <ele>232.78</ele>
        <time>2017-04-04T14:10:13Z</time>
      </trkpt>
      <trkpt lat="43.56014" lon="6.6546">
        <ele>232.78</ele>
        <time>2017-04-04T14:10:22Z</time>
      </trkpt>
      <trkpt lat="43.56018" lon="6.65462">
        <ele>232.3</ele>
        <time>2017-04-04T14:10:28Z</time>
      </trkpt>
      <trkpt lat="43.56022" lon="6.65461">
        <ele>231.81</ele>
        <time>2017-04-04T14:10:33Z</time>
      </trkpt>
      <trkpt lat="43.56031" lon="6.65465">
        <ele>231.33</ele>
        <time>2017-04-04T14:10:42Z</time>
      </trkpt>
      <trkpt lat="43.56039" lon="6.65467">
        <ele>230.37</ele>
        <time>2017-04-04T14:10:49Z</time>
      </trkpt>
      <trkpt lat="43.56042" lon="6.65467">
        <ele>230.85</ele>
        <time>2017-04-04T14:10:51Z</time>
      </trkpt>
      <trkpt lat="43.56049" lon="6.65464">
        <ele>230.37</ele>
        <time>2017-04-04T14:10:56Z</time>
      </trkpt>
      <trkpt lat="43.56052" lon="6.65464">
        <ele>229.89</ele>
        <time>2017-04-04T14:11:01Z</time>
      </trkpt>
      <trkpt lat="43.56059" lon="6.65456">
        <ele>229.41</ele>
        <time>2017-04-04T14:11:11Z</time>
      </trkpt>
      <trkpt lat="43.5606" lon="6.6545">
        <ele>228.93</ele>
        <time>2017-04-04T14:11:13Z</time>
      </trkpt>
      <trkpt lat="43.56066" lon="6.65441">
        <ele>228.93</ele>
        <time>2017-04-04T14:11:18Z</time>
      </trkpt>
      <trkpt lat="43.56069" lon="6.65436">
        <ele>228.45</ele>
        <time>2017-04-04T14:11:24Z</time>
      </trkpt>
      <trkpt lat="43.56072" lon="6.65433">
        <ele>228.45</ele>
        <time>2017-04-04T14:11:27Z</time>
      </trkpt>
      <trkpt lat="43.56077" lon="6.65428">
        <ele>227.49</ele>
        <time>2017-04-04T14:11:33Z</time>
      </trkpt>
      <trkpt lat="43.56082" lon="6.65423">
        <ele>227.49</ele>
        <time>2017-04-04T14:11:37Z</time>
      </trkpt>
      <trkpt lat="43.56093" lon="6.65416">
        <ele>227.01</ele>
        <time>2017-04-04T14:11:47Z</time>
      </trkpt>
      <trkpt lat="43.56107" lon="6.6541">
        <ele>226.05</ele>
        <time>2017-04-04T14:12:00Z</time>
      </trkpt>
      <trkpt lat="43.56113" lon="6.65406">
        <ele>225.57</ele>
        <time>2017-04-04T14:12:05Z</time>
      </trkpt>
      <trkpt lat="43.56123" lon="6.65402">
        <ele>224.61</ele>
        <time>2017-04-04T14:12:16Z</time>
      </trkpt>
      <trkpt lat="43.56127" lon="6.65397">
        <ele>224.12</ele>
        <time>2017-04-04T14:12:20Z</time>
      </trkpt>
      <trkpt lat="43.56133" lon="6.65392">
        <ele>223.64</ele>
        <time>2017-04-04T14:12:26Z</time>
      </trkpt>
      <trkpt lat="43.56146" lon="6.65386">
        <ele>222.68</ele>
        <time>2017-04-04T14:12:39Z</time>
      </trkpt>
      <trkpt lat="43.56155" lon="6.65384">
        <ele>222.2</ele>
        <time>2017-04-04T14:12:49Z</time>
      </trkpt>
      <trkpt lat="43.56166" lon="6.65389">
        <ele>221.24</ele>
        <time>2017-04-04T14:13:00Z</time>
      </trkpt>
      <trkpt lat="43.56177" lon="6.65396">
        <ele>220.28</ele>
        <time>2017-04-04T14:13:11Z</time>
      </trkpt>
      <trkpt lat="43.56179" lon="6.65398">
        <ele>220.28</ele>
        <time>2017-04-04T14:13:13Z</time>
      </trkpt>
      <trkpt lat="43.56181" lon="6.65401">
        <ele>219.8</ele>
        <time>2017-04-04T14:13:16Z</time>
      </trkpt>
      <trkpt lat="43.56187" lon="6.65412">
        <ele>218.84</ele>
        <time>2017-04-04T14:13:26Z</time>
      </trkpt>
      <trkpt lat="43.56189" lon="6.65415">
        <ele>218.84</ele>
        <time>2017-04-04T14:13:29Z</time>
      </trkpt>
      <trkpt lat="43.56189" lon="6.65418">
        <ele>218.36</ele>
        <time>2017-04-04T14:13:31Z</time>
      </trkpt>
      <trkpt lat="43.56192" lon="6.65425">
        <ele>217.88</ele>
        <time>2017-04-04T14:13:38Z</time>
      </trkpt>
      <trkpt lat="43.56192" lon="6.65427">
        <ele>217.88</ele>
        <time>2017-04-04T14:13:40Z</time>
      </trkpt>
      <trkpt lat="43.56196" lon="6.65438">
        <ele>217.4</ele>
        <time>2017-04-04T14:13:48Z</time>
      </trkpt>
      <trkpt lat="43.56201" lon="6.6545">
        <ele>216.43</ele>
        <time>2017-04-04T14:13:57Z</time>
      </trkpt>
      <trkpt lat="43.56207" lon="6.65463">
        <ele>215.47</ele>
        <time>2017-04-04T14:14:07Z</time>
      </trkpt>
      <trkpt lat="43.56217" lon="6.65478">
        <ele>214.99</ele>
        <time>2017-04-04T14:14:18Z</time>
      </trkpt>
      <trkpt lat="43.56224" lon="6.6549">
        <ele>214.03</ele>
        <time>2017-04-04T14:14:28Z</time>
      </trkpt>
      <trkpt lat="43.56225" lon="6.65494">
        <ele>213.55</ele>
        <time>2017-04-04T14:14:31Z</time>
      </trkpt>
      <trkpt lat="43.56224" lon="6.65502">
        <ele>213.07</ele>
        <time>2017-04-04T14:14:37Z</time>
      </trkpt>
      <trkpt lat="43.56223" lon="6.65506">
        <ele>213.07</ele>
        <time>2017-04-04T14:14:40Z</time>
      </trkpt>
      <trkpt lat="43.56219" lon="6.65519">
        <ele>212.11</ele>
        <time>2017-04-04T14:14:50Z</time>
      </trkpt>
      <trkpt lat="43.56215" lon="6.65528">
        <ele>211.63</ele>
        <time>2017-04-04T14:14:57Z</time>
      </trkpt>
      <trkpt lat="43.56212" lon="6.65529">
        <ele>211.63</ele>
        <time>2017-04-04T14:14:59Z</time>
      </trkpt>
      <trkpt lat="43.56207" lon="6.65539">
        <ele>210.67</ele>
        <time>2017-04-04T14:15:08Z</time>
      </trkpt>
      <trkpt lat="43.56201" lon="6.65544">
        <ele>209.7</ele>
        <time>2017-04-04T14:15:16Z</time>
      </trkpt>
      <trkpt lat="43.56196" lon="6.65548">
        <ele>209.22</ele>
        <time>2017-04-04T14:15:23Z</time>
      </trkpt>
      <trkpt lat="43.56189" lon="6.65552">
        <ele>208.26</ele>
        <time>2017-04-04T14:15:32Z</time>
      </trkpt>
      <trkpt lat="43.56176" lon="6.65558">
        <ele>207.78</ele>
        <time>2017-04-04T14:15:45Z</time>
      </trkpt>
      <trkpt lat="43.56175" lon="6.65559">
        <ele>207.78</ele>
        <time>2017-04-04T14:15:46Z</time>
      </trkpt>
      <trkpt lat="43.56169" lon="6.65563">
        <ele>207.3</ele>
        <time>2017-04-04T14:15:51Z</time>
      </trkpt>
      <trkpt lat="43.56153" lon="6.65572">
        <ele>206.34</ele>
        <time>2017-04-04T14:16:04Z</time>
      </trkpt>
      <trkpt lat="43.5614" lon="6.65583">
        <ele>204.9</ele>
        <time>2017-04-04T14:16:16Z</time>
      </trkpt>
      <trkpt lat="43.56137" lon="6.65598">
        <ele>204.42</ele>
        <time>2017-04-04T14:16:26Z</time>
      </trkpt>
      <trkpt lat="43.56139" lon="6.65599">
        <ele>204.42</ele>
        <time>2017-04-04T14:16:44Z</time>
      </trkpt>
      <trkpt lat="43.56138" lon="6.65599">
        <ele>204.42</ele>
        <time>2017-04-04T14:16:59Z</time>
      </trkpt>
      <trkpt lat="43.56138" lon="6.65599">
        <ele>203.94</ele>
        <time>2017-04-04T14:17:26Z</time>
      </trkpt>
      <trkpt lat="43.56139" lon="6.656">
        <ele>203.94</ele>
        <time>2017-04-04T14:17:47Z</time>
      </trkpt>
      <trkpt lat="43.5614" lon="6.656">
        <ele>203.94</ele>
        <time>2017-04-04T14:18:01Z</time>
      </trkpt>
      <trkpt lat="43.56143" lon="6.65602">
        <ele>203.46</ele>
        <time>2017-04-04T14:18:04Z</time>
      </trkpt>
      <trkpt lat="43.56148" lon="6.65601">
        <ele>202.98</ele>
        <time>2017-04-04T14:18:08Z</time>
      </trkpt>
      <trkpt lat="43.56159" lon="6.65599">
        <ele>202.01</ele>
        <time>2017-04-04T14:18:18Z</time>
      </trkpt>
      <trkpt lat="43.56162" lon="6.65599">
        <ele>201.53</ele>
        <time>2017-04-04T14:18:21Z</time>
      </trkpt>
      <trkpt lat="43.56171" lon="6.65598">
        <ele>200.09</ele>
        <time>2017-04-04T14:18:30Z</time>
      </trkpt>
      <trkpt lat="43.5618" lon="6.65599">
        <ele>198.65</ele>
        <time>2017-04-04T14:18:39Z</time>
      </trkpt>
      <trkpt lat="43.56183" lon="6.656">
        <ele>198.65</ele>
        <time>2017-04-04T14:18:42Z</time>
      </trkpt>
      <trkpt lat="43.56191" lon="6.656">
        <ele>198.17</ele>
        <time>2017-04-04T14:18:48Z</time>
      </trkpt>
      <trkpt lat="43.56204" lon="6.65601">
        <ele>196.73</ele>
        <time>2017-04-04T14:18:58Z</time>
      </trkpt>
      <trkpt lat="43.56216" lon="6.65601">
        <ele>195.77</ele>
        <time>2017-04-04T14:19:08Z</time>
      </trkpt>
      <trkpt lat="43.56221" lon="6.65602">
        <ele>195.28</ele>
        <time>2017-04-04T14:19:12Z</time>
      </trkpt>
      <trkpt lat="43.56234" lon="6.656">
        <ele>194.32</ele>
        <time>2017-04-04T14:19:23Z</time>
      </trkpt>
      <trkpt lat="43.56243" lon="6.65601">
        <ele>193.84</ele>
        <time>2017-04-04T14:19:30Z</time>
      </trkpt>
      <trkpt lat="43.56256" lon="6.656">
        <ele>193.84</ele>
        <time>2017-04-04T14:19:41Z</time>
      </trkpt>
      <trkpt lat="43.5626" lon="6.65598">
        <ele>193.84</ele>
        <time>2017-04-04T14:19:46Z</time>
      </trkpt>
      <trkpt lat="43.56268" lon="6.65595">
        <ele>193.84</ele>
        <time>2017-04-04T14:19:53Z</time>
      </trkpt>
      <trkpt lat="43.56283" lon="6.65593">
        <ele>193.84</ele>
        <time>2017-04-04T14:20:06Z</time>
      </trkpt>
      <trkpt lat="43.56289" lon="6.65594">
        <ele>193.84</ele>
        <time>2017-04-04T14:20:12Z</time>
      </trkpt>
      <trkpt lat="43.56293" lon="6.65594">
        <ele>193.84</ele>
        <time>2017-04-04T14:20:15Z</time>
      </trkpt>
      <trkpt lat="43.56307" lon="6.65597">
        <ele>194.32</ele>
        <time>2017-04-04T14:20:27Z</time>
      </trkpt>
      <trkpt lat="43.56316" lon="6.65596">
        <ele>194.32</ele>
        <time>2017-04-04T14:20:34Z</time>
      </trkpt>
      <trkpt lat="43.56322" lon="6.65596">
        <ele>194.8</ele>
        <time>2017-04-04T14:20:39Z</time>
      </trkpt>
      <trkpt lat="43.56332" lon="6.65601">
        <ele>194.8</ele>
        <time>2017-04-04T14:20:47Z</time>
      </trkpt>
      <trkpt lat="43.56335" lon="6.65602">
        <ele>195.28</ele>
        <time>2017-04-04T14:20:50Z</time>
      </trkpt>
      <trkpt lat="43.56349" lon="6.65605">
        <ele>195.28</ele>
        <time>2017-04-04T14:21:01Z</time>
      </trkpt>
      <trkpt lat="43.56353" lon="6.65605">
        <ele>195.28</ele>
        <time>2017-04-04T14:21:04Z</time>
      </trkpt>
      <trkpt lat="43.56357" lon="6.65606">
        <ele>194.8</ele>
        <time>2017-04-04T14:21:08Z</time>
      </trkpt>
      <trkpt lat="43.56371" lon="6.65607">
        <ele>194.32</ele>
        <time>2017-04-04T14:21:19Z</time>
      </trkpt>
      <trkpt lat="43.56385" lon="6.6561">
        <ele>193.36</ele>
        <time>2017-04-04T14:21:29Z</time>
      </trkpt>
      <trkpt lat="43.56395" lon="6.65612">
        <ele>192.88</ele>
        <time>2017-04-04T14:21:37Z</time>
      </trkpt>
      <trkpt lat="43.56401" lon="6.65614">
        <ele>192.88</ele>
        <time>2017-04-04T14:21:44Z</time>
      </trkpt>
      <trkpt lat="43.56403" lon="6.65614">
        <ele>192.4</ele>
        <time>2017-04-04T14:21:46Z</time>
      </trkpt>
      <trkpt lat="43.56417" lon="6.65617">
        <ele>191.92</ele>
        <time>2017-04-04T14:21:58Z</time>
      </trkpt>
      <trkpt lat="43.5643" lon="6.65624">
        <ele>192.4</ele>
        <time>2017-04-04T14:22:09Z</time>
      </trkpt>
      <trkpt lat="43.56435" lon="6.65628">
        <ele>192.88</ele>
        <time>2017-04-04T14:22:14Z</time>
      </trkpt>
      <trkpt lat="43.56437" lon="6.65629">
        <ele>192.88</ele>
        <time>2017-04-04T14:22:16Z</time>
      </trkpt>
      <trkpt lat="43.56447" lon="6.65639">
        <ele>193.84</ele>
        <time>2017-04-04T14:22:28Z</time>
      </trkpt>
      <trkpt lat="43.56457" lon="6.65648">
        <ele>194.32</ele>
        <time>2017-04-04T14:22:38Z</time>
      </trkpt>
      <trkpt lat="43.56459" lon="6.65651">
        <ele>194.32</ele>
        <time>2017-04-04T14:22:40Z</time>
      </trkpt>
      <trkpt lat="43.56463" lon="6.65656">
        <ele>194.8</ele>
        <time>2017-04-04T14:22:46Z</time>
      </trkpt>
      <trkpt lat="43.56467" lon="6.65658">
        <ele>194.8</ele>
        <time>2017-04-04T14:22:50Z</time>
      </trkpt>
      <trkpt lat="43.56473" lon="6.65665">
        <ele>194.32</ele>
        <time>2017-04-04T14:23:01Z</time>
      </trkpt>
      <trkpt lat="43.56474" lon="6.65664">
        <ele>195.28</ele>
        <time>2017-04-04T14:23:14Z</time>
      </trkpt>
      <trkpt lat="43.56474" lon="6.65664">
        <ele>199.61</ele>
        <time>2017-04-04T14:23:18Z</time>
      </trkpt>
      <trkpt lat="43.56474" lon="6.65664">
        <ele>195.28</ele>
        <time>2017-04-04T14:23:19Z</time>
      </trkpt>
      <trkpt lat="43.56474" lon="6.65664">
        <ele>194.8</ele>
        <time>2017-04-04T14:23:41Z</time>
      </trkpt>
      <trkpt lat="43.56474" lon="6.65663">
        <ele>194.8</ele>
        <time>2017-04-04T14:23:58Z</time>
      </trkpt>
      <trkpt lat="43.56474" lon="6.65663">
        <ele>194.8</ele>
        <time>2017-04-04T14:24:15Z</time>
      </trkpt>
      <trkpt lat="43.56474" lon="6.65663">
        <ele>194.32</ele>
        <time>2017-04-04T14:24:24Z</time>
      </trkpt>
      <trkpt lat="43.56477" lon="6.65664">
        <ele>194.32</ele>
        <time>2017-04-04T14:24:26Z</time>
      </trkpt>
      <trkpt lat="43.5648" lon="6.65666">
        <ele>194.8</ele>
        <time>2017-04-04T14:24:30Z</time>
      </trkpt>
      <trkpt lat="43.56486" lon="6.65673">
        <ele>194.8</ele>
        <time>2017-04-04T14:24:37Z</time>
      </trkpt>
      <trkpt lat="43.56498" lon="6.65683">
        <ele>194.32</ele>
        <time>2017-04-04T14:24:49Z</time>
      </trkpt>
      <trkpt lat="43.5651" lon="6.65695">
        <ele>194.32</ele>
        <time>2017-04-04T14:25:00Z</time>
      </trkpt>
      <trkpt lat="43.56521" lon="6.65704">
        <ele>194.32</ele>
        <time>2017-04-04T14:25:11Z</time>
      </trkpt>
      <trkpt lat="43.5653" lon="6.65717">
        <ele>194.32</ele>
        <time>2017-04-04T14:25:21Z</time>
      </trkpt>
      <trkpt lat="43.56532" lon="6.65719">
        <ele>194.32</ele>
        <time>2017-04-04T14:25:23Z</time>
      </trkpt>
      <trkpt lat="43.56545" lon="6.65721">
        <ele>193.36</ele>
        <time>2017-04-04T14:25:33Z</time>
      </trkpt>
      <trkpt lat="43.56556" lon="6.65725">
        <ele>193.84</ele>
        <time>2017-04-04T14:25:43Z</time>
      </trkpt>
      <trkpt lat="43.56559" lon="6.65727">
        <ele>194.32</ele>
        <time>2017-04-04T14:25:46Z</time>
      </trkpt>
      <trkpt lat="43.56563" lon="6.65728">
        <ele>194.8</ele>
        <time>2017-04-04T14:25:50Z</time>
      </trkpt>
      <trkpt lat="43.56567" lon="6.65732">
        <ele>194.8</ele>
        <time>2017-04-04T14:25:54Z</time>
      </trkpt>
      <trkpt lat="43.56571" lon="6.65735">
        <ele>194.32</ele>
        <time>2017-04-04T14:25:59Z</time>
      </trkpt>
      <trkpt lat="43.56582" lon="6.65742">
        <ele>195.28</ele>
        <time>2017-04-04T14:26:10Z</time>
      </trkpt>
      <trkpt lat="43.5659" lon="6.65748">
        <ele>195.28</ele>
        <time>2017-04-04T14:26:20Z</time>
      </trkpt>
      <trkpt lat="43.56599" lon="6.65754">
        <ele>195.77</ele>
        <time>2017-04-04T14:26:29Z</time>
      </trkpt>
      <trkpt lat="43.56611" lon="6.65765">
        <ele>196.25</ele>
        <time>2017-04-04T14:26:41Z</time>
      </trkpt>
      <trkpt lat="43.56622" lon="6.65774">
        <ele>196.73</ele>
        <time>2017-04-04T14:26:53Z</time>
      </trkpt>
      <trkpt lat="43.56624" lon="6.65776">
        <ele>196.73</ele>
        <time>2017-04-04T14:26:56Z</time>
      </trkpt>
      <trkpt lat="43.56628" lon="6.65781">
        <ele>197.21</ele>
        <time>2017-04-04T14:27:01Z</time>
      </trkpt>
      <trkpt lat="43.56633" lon="6.65786">
        <ele>197.21</ele>
        <time>2017-04-04T14:27:07Z</time>
      </trkpt>
      <trkpt lat="43.56636" lon="6.65788">
        <ele>197.21</ele>
        <time>2017-04-04T14:27:10Z</time>
      </trkpt>
      <trkpt lat="43.56649" lon="6.65796">
        <ele>197.69</ele>
        <time>2017-04-04T14:27:21Z</time>
      </trkpt>
      <trkpt lat="43.56658" lon="6.65805">
        <ele>198.17</ele>
        <time>2017-04-04T14:27:32Z</time>
      </trkpt>
      <trkpt lat="43.56663" lon="6.65808">
        <ele>199.13</ele>
        <time>2017-04-04T14:27:38Z</time>
      </trkpt>
      <trkpt lat="43.56672" lon="6.65818">
        <ele>200.09</ele>
        <time>2017-04-04T14:27:49Z</time>
      </trkpt>
      <trkpt lat="43.56686" lon="6.65833">
        <ele>200.57</ele>
        <time>2017-04-04T14:28:01Z</time>
      </trkpt>
      <trkpt lat="43.56687" lon="6.65834">
        <ele>200.57</ele>
        <time>2017-04-04T14:28:02Z</time>
      </trkpt>
      <trkpt lat="43.56691" lon="6.65838">
        <ele>201.05</ele>
        <time>2017-04-04T14:28:05Z</time>
      </trkpt>
      <trkpt lat="43.56702" lon="6.6585">
        <ele>201.53</ele>
        <time>2017-04-04T14:28:15Z</time>
      </trkpt>
      <trkpt lat="43.56711" lon="6.6586">
        <ele>202.01</ele>
        <time>2017-04-04T14:28:27Z</time>
      </trkpt>
      <trkpt lat="43.56718" lon="6.65868">
        <ele>202.98</ele>
        <time>2017-04-04T14:28:36Z</time>
      </trkpt>
      <trkpt lat="43.5672" lon="6.65871">
        <ele>202.98</ele>
        <time>2017-04-04T14:28:39Z</time>
      </trkpt>
      <trkpt lat="43.56731" lon="6.65883">
        <ele>204.42</ele>
        <time>2017-04-04T14:28:52Z</time>
      </trkpt>
      <trkpt lat="43.56732" lon="6.65883">
        <ele>203.94</ele>
        <time>2017-04-04T14:28:53Z</time>
      </trkpt>
      <trkpt lat="43.56734" lon="6.65885">
        <ele>204.42</ele>
        <time>2017-04-04T14:28:55Z</time>
      </trkpt>
      <trkpt lat="43.56737" lon="6.65891">
        <ele>204.9</ele>
        <time>2017-04-04T14:29:02Z</time>
      </trkpt>
      <trkpt lat="43.56743" lon="6.659">
        <ele>205.86</ele>
        <time>2017-04-04T14:29:13Z</time>
      </trkpt>
      <trkpt lat="43.56745" lon="6.65902">
        <ele>206.34</ele>
        <time>2017-04-04T14:29:16Z</time>
      </trkpt>
      <trkpt lat="43.5675" lon="6.65913">
        <ele>206.82</ele>
        <time>2017-04-04T14:29:26Z</time>
      </trkpt>
      <trkpt lat="43.56755" lon="6.65927">
        <ele>207.78</ele>
        <time>2017-04-04T14:29:37Z</time>
      </trkpt>
      <trkpt lat="43.56759" lon="6.65933">
        <ele>208.74</ele>
        <time>2017-04-04T14:29:47Z</time>
      </trkpt>
      <trkpt lat="43.5676" lon="6.65946">
        <ele>209.22</ele>
        <time>2017-04-04T14:29:56Z</time>
      </trkpt>
      <trkpt lat="43.56763" lon="6.65957">
        <ele>209.22</ele>
        <time>2017-04-04T14:30:02Z</time>
      </trkpt>
      <trkpt lat="43.56767" lon="6.6596">
        <ele>209.7</ele>
        <time>2017-04-04T14:30:13Z</time>
      </trkpt>
      <trkpt lat="43.5677" lon="6.6596">
        <ele>209.7</ele>
        <time>2017-04-04T14:30:24Z</time>
      </trkpt>
      <trkpt lat="43.56771" lon="6.65961">
        <ele>209.22</ele>
        <time>2017-04-04T14:30:40Z</time>
      </trkpt>
      <trkpt lat="43.56772" lon="6.6596">
        <ele>209.7</ele>
        <time>2017-04-04T14:31:04Z</time>
      </trkpt>
      <trkpt lat="43.56773" lon="6.6596">
        <ele>209.7</ele>
        <time>2017-04-04T14:31:26Z</time>
      </trkpt>
      <trkpt lat="43.56772" lon="6.65959">
        <ele>210.67</ele>
        <time>2017-04-04T14:31:46Z</time>
      </trkpt>
      <trkpt lat="43.56773" lon="6.65959">
        <ele>209.7</ele>
        <time>2017-04-04T14:32:03Z</time>
      </trkpt>
      <trkpt lat="43.56774" lon="6.65961">
        <ele>209.7</ele>
        <time>2017-04-04T14:32:21Z</time>
      </trkpt>
      <trkpt lat="43.56774" lon="6.65966">
        <ele>209.7</ele>
        <time>2017-04-04T14:32:34Z</time>
      </trkpt>
      <trkpt lat="43.56776" lon="6.65978">
        <ele>210.67</ele>
        <time>2017-04-04T14:32:41Z</time>
      </trkpt>
      <trkpt lat="43.56782" lon="6.65985">
        <ele>211.15</ele>
        <time>2017-04-04T14:32:50Z</time>
      </trkpt>
      <trkpt lat="43.56787" lon="6.65989">
        <ele>211.15</ele>
        <time>2017-04-04T14:32:55Z</time>
      </trkpt>
      <trkpt lat="43.5679" lon="6.65989">
        <ele>211.63</ele>
        <time>2017-04-04T14:32:58Z</time>
      </trkpt>
      <trkpt lat="43.56797" lon="6.65992">
        <ele>211.63</ele>
        <time>2017-04-04T14:33:04Z</time>
      </trkpt>
      <trkpt lat="43.56805" lon="6.66006">
        <ele>213.07</ele>
        <time>2017-04-04T14:33:16Z</time>
      </trkpt>
      <trkpt lat="43.5681" lon="6.66021">
        <ele>214.51</ele>
        <time>2017-04-04T14:33:26Z</time>
      </trkpt>
      <trkpt lat="43.56819" lon="6.66031">
        <ele>214.51</ele>
        <time>2017-04-04T14:33:37Z</time>
      </trkpt>
      <trkpt lat="43.5683" lon="6.66036">
        <ele>214.51</ele>
        <time>2017-04-04T14:33:47Z</time>
      </trkpt>
      <trkpt lat="43.56835" lon="6.66036">
        <ele>214.51</ele>
        <time>2017-04-04T14:33:50Z</time>
      </trkpt>
      <trkpt lat="43.5684" lon="6.66041">
        <ele>214.51</ele>
        <time>2017-04-04T14:33:56Z</time>
      </trkpt>
      <trkpt lat="43.56855" lon="6.66041">
        <ele>214.03</ele>
        <time>2017-04-04T14:34:09Z</time>
      </trkpt>
      <trkpt lat="43.56866" lon="6.66037">
        <ele>213.55</ele>
        <time>2017-04-04T14:34:18Z</time>
      </trkpt>
      <trkpt lat="43.56867" lon="6.66037">
        <ele>213.55</ele>
        <time>2017-04-04T14:34:19Z</time>
      </trkpt>
      <trkpt lat="43.56875" lon="6.66046">
        <ele>213.07</ele>
        <time>2017-04-04T14:34:29Z</time>
      </trkpt>
      <trkpt lat="43.56875" lon="6.6605">
        <ele>213.07</ele>
        <time>2017-04-04T14:34:34Z</time>
      </trkpt>
      <trkpt lat="43.56876" lon="6.66054">
        <ele>212.59</ele>
        <time>2017-04-04T14:34:37Z</time>
      </trkpt>
      <trkpt lat="43.56877" lon="6.66065">
        <ele>212.59</ele>
        <time>2017-04-04T14:34:44Z</time>
      </trkpt>
      <trkpt lat="43.56879" lon="6.66074">
        <ele>212.59</ele>
        <time>2017-04-04T14:34:50Z</time>
      </trkpt>
      <trkpt lat="43.56881" lon="6.66078">
        <ele>212.59</ele>
        <time>2017-04-04T14:34:53Z</time>
      </trkpt>
      <trkpt lat="43.56885" lon="6.66083">
        <ele>212.59</ele>
        <time>2017-04-04T14:34:57Z</time>
      </trkpt>
      <trkpt lat="43.56894" lon="6.66087">
        <ele>211.63</ele>
        <time>2017-04-04T14:35:06Z</time>
      </trkpt>
      <trkpt lat="43.56897" lon="6.66089">
        <ele>211.63</ele>
        <time>2017-04-04T14:35:08Z</time>
      </trkpt>
      <trkpt lat="43.569" lon="6.66089">
        <ele>211.15</ele>
        <time>2017-04-04T14:35:11Z</time>
      </trkpt>
      <trkpt lat="43.56906" lon="6.66089">
        <ele>211.15</ele>
        <time>2017-04-04T14:35:16Z</time>
      </trkpt>
      <trkpt lat="43.56917" lon="6.6609">
        <ele>211.15</ele>
        <time>2017-04-04T14:35:25Z</time>
      </trkpt>
      <trkpt lat="43.56921" lon="6.66091">
        <ele>210.67</ele>
        <time>2017-04-04T14:35:28Z</time>
      </trkpt>
      <trkpt lat="43.56932" lon="6.6609">
        <ele>210.19</ele>
        <time>2017-04-04T14:35:36Z</time>
      </trkpt>
      <trkpt lat="43.56936" lon="6.66091">
        <ele>210.19</ele>
        <time>2017-04-04T14:35:39Z</time>
      </trkpt>
      <trkpt lat="43.56948" lon="6.66095">
        <ele>209.7</ele>
        <time>2017-04-04T14:35:50Z</time>
      </trkpt>
      <trkpt lat="43.56951" lon="6.66097">
        <ele>209.22</ele>
        <time>2017-04-04T14:35:53Z</time>
      </trkpt>
      <trkpt lat="43.5696" lon="6.661">
        <ele>208.74</ele>
        <time>2017-04-04T14:36:01Z</time>
      </trkpt>
      <trkpt lat="43.56973" lon="6.66108">
        <ele>207.78</ele>
        <time>2017-04-04T14:36:13Z</time>
      </trkpt>
      <trkpt lat="43.56981" lon="6.66117">
        <ele>207.3</ele>
        <time>2017-04-04T14:36:21Z</time>
      </trkpt>
      <trkpt lat="43.56992" lon="6.66129">
        <ele>206.34</ele>
        <time>2017-04-04T14:36:32Z</time>
      </trkpt>
      <trkpt lat="43.56999" lon="6.66137">
        <ele>205.86</ele>
        <time>2017-04-04T14:36:40Z</time>
      </trkpt>
      <trkpt lat="43.57003" lon="6.66141">
        <ele>205.38</ele>
        <time>2017-04-04T14:36:45Z</time>
      </trkpt>
      <trkpt lat="43.5701" lon="6.6615">
        <ele>204.9</ele>
        <time>2017-04-04T14:36:53Z</time>
      </trkpt>
      <trkpt lat="43.57013" lon="6.66155">
        <ele>204.42</ele>
        <time>2017-04-04T14:36:57Z</time>
      </trkpt>
      <trkpt lat="43.57019" lon="6.66161">
        <ele>204.9</ele>
        <time>2017-04-04T14:37:04Z</time>
      </trkpt>
      <trkpt lat="43.57023" lon="6.66165">
        <ele>204.42</ele>
        <time>2017-04-04T14:37:10Z</time>
      </trkpt>
      <trkpt lat="43.57024" lon="6.66168">
        <ele>203.94</ele>
        <time>2017-04-04T14:37:18Z</time>
      </trkpt>
      <trkpt lat="43.57025" lon="6.66169">
        <ele>206.82</ele>
        <time>2017-04-04T14:37:22Z</time>
      </trkpt>
      <trkpt lat="43.57025" lon="6.66169">
        <ele>203.46</ele>
        <time>2017-04-04T14:37:23Z</time>
      </trkpt>
      <trkpt lat="43.57026" lon="6.66169">
        <ele>204.42</ele>
        <time>2017-04-04T14:37:40Z</time>
      </trkpt>
      <trkpt lat="43.57027" lon="6.66169">
        <ele>201.53</ele>
        <time>2017-04-04T14:37:44Z</time>
      </trkpt>
      <trkpt lat="43.57027" lon="6.66169">
        <ele>207.3</ele>
        <time>2017-04-04T14:37:45Z</time>
      </trkpt>
      <trkpt lat="43.57027" lon="6.6617">
        <ele>204.42</ele>
        <time>2017-04-04T14:37:46Z</time>
      </trkpt>
      <trkpt lat="43.57026" lon="6.6617">
        <ele>202.49</ele>
        <time>2017-04-04T14:37:57Z</time>
      </trkpt>
    </trkseg>
  </trk>
</gpx>